<?xml version="1.0" encoding="UTF-8" standalone="no" ?>
<gpx xmlns="http://www.topografix.com/GPX/1/1" xmlns:xsi="http://www.w3.org/2001/XMLSchema-instance" xsi:schemaLocation="http://www.topografix.com/GPX/1/1 http://www.topografix.com/GPX/1/1/gpx.xsd" version="1.1" creator="VisuGPX - https://www.visugpx.com">
  <metadata>
    <name>randonnée d automne</name>
    <desc><![CDATA[randonnée superbe avec le tapis multicolore de feuilles]]></desc>
  </metadata>
  <trk>
    <name><![CDATA[Tracé actuel: 14 OCT 2018 13:09]]></name>
    <trkseg>
      <trkpt lat="49.63445" lon="4.98051">
        <ele>109.25</ele>
        <time>2018-10-14T11:09:17Z</time>
      </trkpt>
      <trkpt lat="49.63461" lon="4.98034">
        <ele>118.86</ele>
        <time>2018-10-14T11:09:44Z</time>
      </trkpt>
      <trkpt lat="49.63476" lon="4.98042">
        <ele>126.07</ele>
        <time>2018-10-14T11:10:00Z</time>
      </trkpt>
      <trkpt lat="49.63468" lon="4.98034">
        <ele>123.67</ele>
        <time>2018-10-14T11:10:17Z</time>
      </trkpt>
      <trkpt lat="49.63465" lon="4.98031">
        <ele>123.67</ele>
        <time>2018-10-14T11:10:21Z</time>
      </trkpt>
      <trkpt lat="49.63451" lon="4.98014">
        <ele>122.71</ele>
        <time>2018-10-14T11:10:41Z</time>
      </trkpt>
      <trkpt lat="49.63443" lon="4.97993">
        <ele>121.26</ele>
        <time>2018-10-14T11:10:58Z</time>
      </trkpt>
      <trkpt lat="49.63438" lon="4.97979">
        <ele>120.3</ele>
        <time>2018-10-14T11:11:14Z</time>
      </trkpt>
      <trkpt lat="49.63429" lon="4.97958">
        <ele>117.42</ele>
        <time>2018-10-14T11:11:30Z</time>
      </trkpt>
      <trkpt lat="49.63428" lon="4.97945">
        <ele>116.46</ele>
        <time>2018-10-14T11:11:39Z</time>
      </trkpt>
      <trkpt lat="49.6344" lon="4.97935">
        <ele>113.09</ele>
        <time>2018-10-14T11:11:54Z</time>
      </trkpt>
      <trkpt lat="49.63451" lon="4.97919">
        <ele>112.13</ele>
        <time>2018-10-14T11:12:09Z</time>
      </trkpt>
      <trkpt lat="49.6346" lon="4.97907">
        <ele>114.05</ele>
        <time>2018-10-14T11:12:24Z</time>
      </trkpt>
      <trkpt lat="49.63461" lon="4.97908">
        <ele>142.41</ele>
        <time>2018-10-14T11:12:41Z</time>
      </trkpt>
      <trkpt lat="49.63468" lon="4.97892">
        <ele>151.06</ele>
        <time>2018-10-14T11:12:59Z</time>
      </trkpt>
      <trkpt lat="49.63479" lon="4.97869">
        <ele>152.03</ele>
        <time>2018-10-14T11:13:17Z</time>
      </trkpt>
      <trkpt lat="49.63488" lon="4.97849">
        <ele>151.54</ele>
        <time>2018-10-14T11:13:34Z</time>
      </trkpt>
      <trkpt lat="49.63499" lon="4.97832">
        <ele>153.95</ele>
        <time>2018-10-14T11:13:49Z</time>
      </trkpt>
      <trkpt lat="49.63516" lon="4.97813">
        <ele>154.43</ele>
        <time>2018-10-14T11:14:08Z</time>
      </trkpt>
      <trkpt lat="49.63529" lon="4.97799">
        <ele>152.99</ele>
        <time>2018-10-14T11:14:23Z</time>
      </trkpt>
      <trkpt lat="49.63545" lon="4.97773">
        <ele>155.39</ele>
        <time>2018-10-14T11:14:43Z</time>
      </trkpt>
      <trkpt lat="49.63558" lon="4.97749">
        <ele>153.47</ele>
        <time>2018-10-14T11:15:02Z</time>
      </trkpt>
      <trkpt lat="49.63571" lon="4.97721">
        <ele>153.95</ele>
        <time>2018-10-14T11:15:21Z</time>
      </trkpt>
      <trkpt lat="49.63582" lon="4.97705">
        <ele>153.47</ele>
        <time>2018-10-14T11:15:36Z</time>
      </trkpt>
      <trkpt lat="49.63591" lon="4.97688">
        <ele>153.95</ele>
        <time>2018-10-14T11:15:51Z</time>
      </trkpt>
      <trkpt lat="49.6361" lon="4.9767">
        <ele>160.68</ele>
        <time>2018-10-14T11:16:10Z</time>
      </trkpt>
      <trkpt lat="49.63613" lon="4.97667">
        <ele>161.16</ele>
        <time>2018-10-14T11:16:13Z</time>
      </trkpt>
      <trkpt lat="49.63628" lon="4.97648">
        <ele>161.64</ele>
        <time>2018-10-14T11:16:31Z</time>
      </trkpt>
      <trkpt lat="49.63639" lon="4.97628">
        <ele>165.96</ele>
        <time>2018-10-14T11:16:46Z</time>
      </trkpt>
      <trkpt lat="49.63645" lon="4.97603">
        <ele>168.37</ele>
        <time>2018-10-14T11:17:02Z</time>
      </trkpt>
      <trkpt lat="49.63646" lon="4.97596">
        <ele>169.81</ele>
        <time>2018-10-14T11:17:06Z</time>
      </trkpt>
      <trkpt lat="49.63647" lon="4.97568">
        <ele>174.62</ele>
        <time>2018-10-14T11:17:22Z</time>
      </trkpt>
      <trkpt lat="49.63647" lon="4.97565">
        <ele>175.1</ele>
        <time>2018-10-14T11:17:24Z</time>
      </trkpt>
      <trkpt lat="49.63645" lon="4.97561">
        <ele>175.1</ele>
        <time>2018-10-14T11:17:27Z</time>
      </trkpt>
      <trkpt lat="49.63643" lon="4.97539">
        <ele>177.02</ele>
        <time>2018-10-14T11:17:41Z</time>
      </trkpt>
      <trkpt lat="49.63642" lon="4.97529">
        <ele>177.5</ele>
        <time>2018-10-14T11:17:47Z</time>
      </trkpt>
      <trkpt lat="49.63641" lon="4.97501">
        <ele>179.9</ele>
        <time>2018-10-14T11:18:03Z</time>
      </trkpt>
      <trkpt lat="49.63643" lon="4.97469">
        <ele>182.31</ele>
        <time>2018-10-14T11:18:21Z</time>
      </trkpt>
      <trkpt lat="49.63644" lon="4.97459">
        <ele>181.83</ele>
        <time>2018-10-14T11:18:27Z</time>
      </trkpt>
      <trkpt lat="49.63647" lon="4.97435">
        <ele>179.9</ele>
        <time>2018-10-14T11:18:42Z</time>
      </trkpt>
      <trkpt lat="49.63632" lon="4.97415">
        <ele>180.38</ele>
        <time>2018-10-14T11:19:01Z</time>
      </trkpt>
      <trkpt lat="49.63617" lon="4.97397">
        <ele>180.38</ele>
        <time>2018-10-14T11:19:17Z</time>
      </trkpt>
      <trkpt lat="49.63601" lon="4.9738">
        <ele>180.87</ele>
        <time>2018-10-14T11:19:34Z</time>
      </trkpt>
      <trkpt lat="49.6359" lon="4.97369">
        <ele>180.38</ele>
        <time>2018-10-14T11:19:47Z</time>
      </trkpt>
      <trkpt lat="49.63573" lon="4.97348">
        <ele>180.38</ele>
        <time>2018-10-14T11:20:05Z</time>
      </trkpt>
      <trkpt lat="49.63559" lon="4.97323">
        <ele>181.35</ele>
        <time>2018-10-14T11:20:23Z</time>
      </trkpt>
      <trkpt lat="49.63549" lon="4.9729">
        <ele>181.35</ele>
        <time>2018-10-14T11:20:43Z</time>
      </trkpt>
      <trkpt lat="49.63542" lon="4.97263">
        <ele>180.87</ele>
        <time>2018-10-14T11:21:00Z</time>
      </trkpt>
      <trkpt lat="49.63534" lon="4.97232">
        <ele>180.38</ele>
        <time>2018-10-14T11:21:19Z</time>
      </trkpt>
      <trkpt lat="49.63525" lon="4.97201">
        <ele>179.42</ele>
        <time>2018-10-14T11:21:38Z</time>
      </trkpt>
      <trkpt lat="49.63517" lon="4.97174">
        <ele>179.9</ele>
        <time>2018-10-14T11:21:55Z</time>
      </trkpt>
      <trkpt lat="49.63509" lon="4.97147">
        <ele>179.9</ele>
        <time>2018-10-14T11:22:12Z</time>
      </trkpt>
      <trkpt lat="49.635" lon="4.97115">
        <ele>179.42</ele>
        <time>2018-10-14T11:22:31Z</time>
      </trkpt>
      <trkpt lat="49.63499" lon="4.9711">
        <ele>179.42</ele>
        <time>2018-10-14T11:22:35Z</time>
      </trkpt>
      <trkpt lat="49.63497" lon="4.97101">
        <ele>179.42</ele>
        <time>2018-10-14T11:22:40Z</time>
      </trkpt>
      <trkpt lat="49.63488" lon="4.97072">
        <ele>178.46</ele>
        <time>2018-10-14T11:22:58Z</time>
      </trkpt>
      <trkpt lat="49.63478" lon="4.97041">
        <ele>177.98</ele>
        <time>2018-10-14T11:23:16Z</time>
      </trkpt>
      <trkpt lat="49.63469" lon="4.97009">
        <ele>176.54</ele>
        <time>2018-10-14T11:23:36Z</time>
      </trkpt>
      <trkpt lat="49.63466" lon="4.96981">
        <ele>175.1</ele>
        <time>2018-10-14T11:23:52Z</time>
      </trkpt>
      <trkpt lat="49.63455" lon="4.9695">
        <ele>173.66</ele>
        <time>2018-10-14T11:24:12Z</time>
      </trkpt>
      <trkpt lat="49.63438" lon="4.96922">
        <ele>171.73</ele>
        <time>2018-10-14T11:24:33Z</time>
      </trkpt>
      <trkpt lat="49.63421" lon="4.96901">
        <ele>171.25</ele>
        <time>2018-10-14T11:24:53Z</time>
      </trkpt>
      <trkpt lat="49.63404" lon="4.96881">
        <ele>169.33</ele>
        <time>2018-10-14T11:25:12Z</time>
      </trkpt>
      <trkpt lat="49.6339" lon="4.96864">
        <ele>168.37</ele>
        <time>2018-10-14T11:25:28Z</time>
      </trkpt>
      <trkpt lat="49.63378" lon="4.9685">
        <ele>166.45</ele>
        <time>2018-10-14T11:25:43Z</time>
      </trkpt>
      <trkpt lat="49.63365" lon="4.96832">
        <ele>167.41</ele>
        <time>2018-10-14T11:25:59Z</time>
      </trkpt>
      <trkpt lat="49.63354" lon="4.96815">
        <ele>167.89</ele>
        <time>2018-10-14T11:26:13Z</time>
      </trkpt>
      <trkpt lat="49.63341" lon="4.96787">
        <ele>167.89</ele>
        <time>2018-10-14T11:26:33Z</time>
      </trkpt>
      <trkpt lat="49.63335" lon="4.96764">
        <ele>166.45</ele>
        <time>2018-10-14T11:26:48Z</time>
      </trkpt>
      <trkpt lat="49.63332" lon="4.96733">
        <ele>165</ele>
        <time>2018-10-14T11:27:07Z</time>
      </trkpt>
      <trkpt lat="49.63324" lon="4.96705">
        <ele>166.93</ele>
        <time>2018-10-14T11:27:24Z</time>
      </trkpt>
      <trkpt lat="49.63313" lon="4.96681">
        <ele>166.45</ele>
        <time>2018-10-14T11:27:41Z</time>
      </trkpt>
      <trkpt lat="49.63312" lon="4.96679">
        <ele>166.45</ele>
        <time>2018-10-14T11:27:52Z</time>
      </trkpt>
      <trkpt lat="49.63307" lon="4.96675">
        <ele>166.93</ele>
        <time>2018-10-14T11:27:57Z</time>
      </trkpt>
      <trkpt lat="49.63302" lon="4.96669">
        <ele>166.93</ele>
        <time>2018-10-14T11:28:03Z</time>
      </trkpt>
      <trkpt lat="49.63291" lon="4.96642">
        <ele>165.48</ele>
        <time>2018-10-14T11:28:22Z</time>
      </trkpt>
      <trkpt lat="49.63289" lon="4.96634">
        <ele>165</ele>
        <time>2018-10-14T11:28:27Z</time>
      </trkpt>
      <trkpt lat="49.63278" lon="4.96607">
        <ele>166.93</ele>
        <time>2018-10-14T11:28:44Z</time>
      </trkpt>
      <trkpt lat="49.63256" lon="4.96588">
        <ele>168.85</ele>
        <time>2018-10-14T11:29:04Z</time>
      </trkpt>
      <trkpt lat="49.63238" lon="4.96573">
        <ele>168.85</ele>
        <time>2018-10-14T11:29:23Z</time>
      </trkpt>
      <trkpt lat="49.63221" lon="4.96558">
        <ele>168.37</ele>
        <time>2018-10-14T11:29:40Z</time>
      </trkpt>
      <trkpt lat="49.63214" lon="4.96553">
        <ele>168.85</ele>
        <time>2018-10-14T11:29:47Z</time>
      </trkpt>
      <trkpt lat="49.63191" lon="4.96536">
        <ele>168.37</ele>
        <time>2018-10-14T11:30:09Z</time>
      </trkpt>
      <trkpt lat="49.63172" lon="4.96524">
        <ele>169.33</ele>
        <time>2018-10-14T11:30:26Z</time>
      </trkpt>
      <trkpt lat="49.63152" lon="4.96511">
        <ele>169.81</ele>
        <time>2018-10-14T11:30:45Z</time>
      </trkpt>
      <trkpt lat="49.6313" lon="4.96498">
        <ele>170.29</ele>
        <time>2018-10-14T11:31:04Z</time>
      </trkpt>
      <trkpt lat="49.63114" lon="4.96488">
        <ele>171.25</ele>
        <time>2018-10-14T11:31:19Z</time>
      </trkpt>
      <trkpt lat="49.63095" lon="4.96476">
        <ele>171.73</ele>
        <time>2018-10-14T11:31:37Z</time>
      </trkpt>
      <trkpt lat="49.63075" lon="4.96463">
        <ele>171.73</ele>
        <time>2018-10-14T11:31:55Z</time>
      </trkpt>
      <trkpt lat="49.63054" lon="4.9645">
        <ele>172.21</ele>
        <time>2018-10-14T11:32:14Z</time>
      </trkpt>
      <trkpt lat="49.63037" lon="4.96439">
        <ele>171.73</ele>
        <time>2018-10-14T11:32:31Z</time>
      </trkpt>
      <trkpt lat="49.63015" lon="4.96425">
        <ele>173.66</ele>
        <time>2018-10-14T11:32:50Z</time>
      </trkpt>
      <trkpt lat="49.62998" lon="4.96416">
        <ele>174.62</ele>
        <time>2018-10-14T11:33:06Z</time>
      </trkpt>
      <trkpt lat="49.6298" lon="4.96406">
        <ele>174.14</ele>
        <time>2018-10-14T11:33:24Z</time>
      </trkpt>
      <trkpt lat="49.62962" lon="4.96396">
        <ele>171.73</ele>
        <time>2018-10-14T11:33:42Z</time>
      </trkpt>
      <trkpt lat="49.62954" lon="4.9639">
        <ele>170.29</ele>
        <time>2018-10-14T11:33:51Z</time>
      </trkpt>
      <trkpt lat="49.62933" lon="4.96374">
        <ele>170.77</ele>
        <time>2018-10-14T11:34:10Z</time>
      </trkpt>
      <trkpt lat="49.62915" lon="4.96358">
        <ele>173.17</ele>
        <time>2018-10-14T11:34:27Z</time>
      </trkpt>
      <trkpt lat="49.62897" lon="4.96343">
        <ele>175.1</ele>
        <time>2018-10-14T11:34:45Z</time>
      </trkpt>
      <trkpt lat="49.62877" lon="4.96327">
        <ele>176.54</ele>
        <time>2018-10-14T11:35:04Z</time>
      </trkpt>
      <trkpt lat="49.62861" lon="4.96316">
        <ele>177.98</ele>
        <time>2018-10-14T11:35:19Z</time>
      </trkpt>
      <trkpt lat="49.62844" lon="4.96306">
        <ele>178.94</ele>
        <time>2018-10-14T11:35:35Z</time>
      </trkpt>
      <trkpt lat="49.62832" lon="4.963">
        <ele>177.98</ele>
        <time>2018-10-14T11:35:48Z</time>
      </trkpt>
      <trkpt lat="49.6283" lon="4.963">
        <ele>178.46</ele>
        <time>2018-10-14T11:35:50Z</time>
      </trkpt>
      <trkpt lat="49.62826" lon="4.963">
        <ele>178.46</ele>
        <time>2018-10-14T11:35:53Z</time>
      </trkpt>
      <trkpt lat="49.62804" lon="4.96293">
        <ele>176.54</ele>
        <time>2018-10-14T11:36:12Z</time>
      </trkpt>
      <trkpt lat="49.62794" lon="4.96287">
        <ele>174.62</ele>
        <time>2018-10-14T11:36:22Z</time>
      </trkpt>
      <trkpt lat="49.62777" lon="4.96274">
        <ele>171.73</ele>
        <time>2018-10-14T11:36:40Z</time>
      </trkpt>
      <trkpt lat="49.62762" lon="4.96259">
        <ele>176.54</ele>
        <time>2018-10-14T11:36:54Z</time>
      </trkpt>
      <trkpt lat="49.62747" lon="4.96246">
        <ele>179.42</ele>
        <time>2018-10-14T11:37:10Z</time>
      </trkpt>
      <trkpt lat="49.62723" lon="4.96231">
        <ele>179.42</ele>
        <time>2018-10-14T11:37:31Z</time>
      </trkpt>
      <trkpt lat="49.62704" lon="4.96218">
        <ele>179.9</ele>
        <time>2018-10-14T11:37:48Z</time>
      </trkpt>
      <trkpt lat="49.62691" lon="4.96205">
        <ele>177.98</ele>
        <time>2018-10-14T11:38:02Z</time>
      </trkpt>
      <trkpt lat="49.62675" lon="4.96179">
        <ele>177.98</ele>
        <time>2018-10-14T11:38:23Z</time>
      </trkpt>
      <trkpt lat="49.62671" lon="4.96172">
        <ele>178.94</ele>
        <time>2018-10-14T11:38:29Z</time>
      </trkpt>
      <trkpt lat="49.62657" lon="4.96154">
        <ele>181.35</ele>
        <time>2018-10-14T11:38:46Z</time>
      </trkpt>
      <trkpt lat="49.62651" lon="4.96145">
        <ele>183.75</ele>
        <time>2018-10-14T11:38:55Z</time>
      </trkpt>
      <trkpt lat="49.62643" lon="4.96134">
        <ele>185.19</ele>
        <time>2018-10-14T11:39:08Z</time>
      </trkpt>
      <trkpt lat="49.62634" lon="4.96122">
        <ele>186.63</ele>
        <time>2018-10-14T11:39:20Z</time>
      </trkpt>
      <trkpt lat="49.62618" lon="4.96105">
        <ele>189.04</ele>
        <time>2018-10-14T11:39:38Z</time>
      </trkpt>
      <trkpt lat="49.62603" lon="4.96099">
        <ele>192.4</ele>
        <time>2018-10-14T11:39:52Z</time>
      </trkpt>
      <trkpt lat="49.62588" lon="4.96098">
        <ele>193.36</ele>
        <time>2018-10-14T11:40:06Z</time>
      </trkpt>
      <trkpt lat="49.62568" lon="4.96104">
        <ele>192.88</ele>
        <time>2018-10-14T11:40:25Z</time>
      </trkpt>
      <trkpt lat="49.62553" lon="4.96108">
        <ele>193.36</ele>
        <time>2018-10-14T11:40:41Z</time>
      </trkpt>
      <trkpt lat="49.62535" lon="4.9611">
        <ele>189.52</ele>
        <time>2018-10-14T11:40:57Z</time>
      </trkpt>
      <trkpt lat="49.62533" lon="4.96112">
        <ele>188.56</ele>
        <time>2018-10-14T11:40:59Z</time>
      </trkpt>
      <trkpt lat="49.62515" lon="4.96109">
        <ele>188.08</ele>
        <time>2018-10-14T11:41:15Z</time>
      </trkpt>
      <trkpt lat="49.62495" lon="4.96109">
        <ele>188.08</ele>
        <time>2018-10-14T11:41:32Z</time>
      </trkpt>
      <trkpt lat="49.6248" lon="4.96104">
        <ele>186.63</ele>
        <time>2018-10-14T11:41:46Z</time>
      </trkpt>
      <trkpt lat="49.62464" lon="4.96096">
        <ele>185.19</ele>
        <time>2018-10-14T11:42:00Z</time>
      </trkpt>
      <trkpt lat="49.62447" lon="4.96089">
        <ele>185.19</ele>
        <time>2018-10-14T11:42:17Z</time>
      </trkpt>
      <trkpt lat="49.62432" lon="4.96078">
        <ele>182.31</ele>
        <time>2018-10-14T11:42:32Z</time>
      </trkpt>
      <trkpt lat="49.62419" lon="4.96073">
        <ele>180.87</ele>
        <time>2018-10-14T11:42:45Z</time>
      </trkpt>
      <trkpt lat="49.62416" lon="4.96072">
        <ele>180.87</ele>
        <time>2018-10-14T11:42:48Z</time>
      </trkpt>
      <trkpt lat="49.62414" lon="4.96071">
        <ele>180.38</ele>
        <time>2018-10-14T11:42:50Z</time>
      </trkpt>
      <trkpt lat="49.62398" lon="4.96056">
        <ele>178.46</ele>
        <time>2018-10-14T11:43:05Z</time>
      </trkpt>
      <trkpt lat="49.62388" lon="4.96033">
        <ele>178.46</ele>
        <time>2018-10-14T11:43:22Z</time>
      </trkpt>
      <trkpt lat="49.6238" lon="4.96005">
        <ele>177.98</ele>
        <time>2018-10-14T11:43:39Z</time>
      </trkpt>
      <trkpt lat="49.62374" lon="4.95979">
        <ele>177.5</ele>
        <time>2018-10-14T11:43:55Z</time>
      </trkpt>
      <trkpt lat="49.62367" lon="4.95952">
        <ele>176.54</ele>
        <time>2018-10-14T11:44:12Z</time>
      </trkpt>
      <trkpt lat="49.62362" lon="4.95925">
        <ele>176.06</ele>
        <time>2018-10-14T11:44:30Z</time>
      </trkpt>
      <trkpt lat="49.6236" lon="4.95916">
        <ele>174.62</ele>
        <time>2018-10-14T11:44:36Z</time>
      </trkpt>
      <trkpt lat="49.6235" lon="4.95891">
        <ele>173.66</ele>
        <time>2018-10-14T11:44:54Z</time>
      </trkpt>
      <trkpt lat="49.62348" lon="4.95885">
        <ele>173.17</ele>
        <time>2018-10-14T11:44:59Z</time>
      </trkpt>
      <trkpt lat="49.62342" lon="4.95884">
        <ele>173.17</ele>
        <time>2018-10-14T11:45:05Z</time>
      </trkpt>
      <trkpt lat="49.62326" lon="4.9589">
        <ele>173.66</ele>
        <time>2018-10-14T11:45:19Z</time>
      </trkpt>
      <trkpt lat="49.62304" lon="4.95899">
        <ele>174.62</ele>
        <time>2018-10-14T11:45:38Z</time>
      </trkpt>
      <trkpt lat="49.62302" lon="4.959">
        <ele>174.62</ele>
        <time>2018-10-14T11:45:40Z</time>
      </trkpt>
      <trkpt lat="49.62291" lon="4.95887">
        <ele>172.21</ele>
        <time>2018-10-14T11:45:53Z</time>
      </trkpt>
      <trkpt lat="49.62288" lon="4.95881">
        <ele>170.77</ele>
        <time>2018-10-14T11:45:59Z</time>
      </trkpt>
      <trkpt lat="49.62279" lon="4.95854">
        <ele>170.77</ele>
        <time>2018-10-14T11:46:15Z</time>
      </trkpt>
      <trkpt lat="49.62277" lon="4.95843">
        <ele>171.73</ele>
        <time>2018-10-14T11:46:22Z</time>
      </trkpt>
      <trkpt lat="49.62274" lon="4.9583">
        <ele>170.77</ele>
        <time>2018-10-14T11:46:29Z</time>
      </trkpt>
      <trkpt lat="49.62272" lon="4.95807">
        <ele>170.29</ele>
        <time>2018-10-14T11:46:42Z</time>
      </trkpt>
      <trkpt lat="49.6227" lon="4.95773">
        <ele>169.81</ele>
        <time>2018-10-14T11:47:01Z</time>
      </trkpt>
      <trkpt lat="49.6227" lon="4.95764">
        <ele>169.81</ele>
        <time>2018-10-14T11:47:06Z</time>
      </trkpt>
      <trkpt lat="49.62269" lon="4.95729">
        <ele>169.33</ele>
        <time>2018-10-14T11:47:26Z</time>
      </trkpt>
      <trkpt lat="49.62267" lon="4.95702">
        <ele>168.37</ele>
        <time>2018-10-14T11:47:42Z</time>
      </trkpt>
      <trkpt lat="49.6226" lon="4.95684">
        <ele>166.45</ele>
        <time>2018-10-14T11:47:55Z</time>
      </trkpt>
      <trkpt lat="49.62256" lon="4.9566">
        <ele>167.89</ele>
        <time>2018-10-14T11:48:10Z</time>
      </trkpt>
      <trkpt lat="49.62254" lon="4.95636">
        <ele>171.73</ele>
        <time>2018-10-14T11:48:26Z</time>
      </trkpt>
      <trkpt lat="49.62255" lon="4.95619">
        <ele>175.1</ele>
        <time>2018-10-14T11:48:38Z</time>
      </trkpt>
      <trkpt lat="49.62255" lon="4.9561">
        <ele>175.1</ele>
        <time>2018-10-14T11:48:43Z</time>
      </trkpt>
      <trkpt lat="49.62256" lon="4.95605">
        <ele>175.1</ele>
        <time>2018-10-14T11:48:46Z</time>
      </trkpt>
      <trkpt lat="49.62252" lon="4.95588">
        <ele>175.1</ele>
        <time>2018-10-14T11:48:57Z</time>
      </trkpt>
      <trkpt lat="49.62246" lon="4.95564">
        <ele>178.94</ele>
        <time>2018-10-14T11:49:14Z</time>
      </trkpt>
      <trkpt lat="49.62241" lon="4.95544">
        <ele>181.35</ele>
        <time>2018-10-14T11:49:27Z</time>
      </trkpt>
      <trkpt lat="49.62234" lon="4.95526">
        <ele>184.23</ele>
        <time>2018-10-14T11:49:39Z</time>
      </trkpt>
      <trkpt lat="49.62233" lon="4.95527">
        <ele>184.71</ele>
        <time>2018-10-14T11:49:41Z</time>
      </trkpt>
      <trkpt lat="49.6223" lon="4.95538">
        <ele>188.08</ele>
        <time>2018-10-14T11:49:55Z</time>
      </trkpt>
      <trkpt lat="49.62227" lon="4.9556">
        <ele>188.08</ele>
        <time>2018-10-14T11:50:08Z</time>
      </trkpt>
      <trkpt lat="49.62224" lon="4.95584">
        <ele>188.08</ele>
        <time>2018-10-14T11:50:23Z</time>
      </trkpt>
      <trkpt lat="49.6222" lon="4.95604">
        <ele>188.56</ele>
        <time>2018-10-14T11:50:38Z</time>
      </trkpt>
      <trkpt lat="49.62213" lon="4.95623">
        <ele>188.08</ele>
        <time>2018-10-14T11:50:51Z</time>
      </trkpt>
      <trkpt lat="49.62207" lon="4.95644">
        <ele>190</ele>
        <time>2018-10-14T11:51:07Z</time>
      </trkpt>
      <trkpt lat="49.62208" lon="4.95658">
        <ele>191.92</ele>
        <time>2018-10-14T11:51:18Z</time>
      </trkpt>
      <trkpt lat="49.62209" lon="4.9567">
        <ele>190.96</ele>
        <time>2018-10-14T11:51:25Z</time>
      </trkpt>
      <trkpt lat="49.6221" lon="4.95698">
        <ele>187.59</ele>
        <time>2018-10-14T11:51:39Z</time>
      </trkpt>
      <trkpt lat="49.62206" lon="4.95723">
        <ele>186.15</ele>
        <time>2018-10-14T11:51:52Z</time>
      </trkpt>
      <trkpt lat="49.62203" lon="4.95742">
        <ele>186.15</ele>
        <time>2018-10-14T11:52:04Z</time>
      </trkpt>
      <trkpt lat="49.62197" lon="4.95773">
        <ele>185.19</ele>
        <time>2018-10-14T11:52:23Z</time>
      </trkpt>
      <trkpt lat="49.62192" lon="4.95794">
        <ele>182.79</ele>
        <time>2018-10-14T11:52:36Z</time>
      </trkpt>
      <trkpt lat="49.62186" lon="4.95813">
        <ele>182.31</ele>
        <time>2018-10-14T11:52:50Z</time>
      </trkpt>
      <trkpt lat="49.62185" lon="4.95816">
        <ele>181.83</ele>
        <time>2018-10-14T11:52:52Z</time>
      </trkpt>
      <trkpt lat="49.62173" lon="4.9583">
        <ele>176.06</ele>
        <time>2018-10-14T11:53:06Z</time>
      </trkpt>
      <trkpt lat="49.6216" lon="4.95844">
        <ele>174.62</ele>
        <time>2018-10-14T11:53:21Z</time>
      </trkpt>
      <trkpt lat="49.62148" lon="4.95858">
        <ele>176.54</ele>
        <time>2018-10-14T11:53:34Z</time>
      </trkpt>
      <trkpt lat="49.62135" lon="4.9587">
        <ele>178.94</ele>
        <time>2018-10-14T11:53:49Z</time>
      </trkpt>
      <trkpt lat="49.62133" lon="4.95871">
        <ele>179.42</ele>
        <time>2018-10-14T11:53:51Z</time>
      </trkpt>
      <trkpt lat="49.62121" lon="4.95878">
        <ele>179.9</ele>
        <time>2018-10-14T11:54:00Z</time>
      </trkpt>
      <trkpt lat="49.62105" lon="4.9589">
        <ele>181.83</ele>
        <time>2018-10-14T11:54:16Z</time>
      </trkpt>
      <trkpt lat="49.62093" lon="4.95897">
        <ele>183.27</ele>
        <time>2018-10-14T11:54:30Z</time>
      </trkpt>
      <trkpt lat="49.62081" lon="4.95903">
        <ele>185.19</ele>
        <time>2018-10-14T11:54:42Z</time>
      </trkpt>
      <trkpt lat="49.62071" lon="4.95917">
        <ele>189.04</ele>
        <time>2018-10-14T11:54:56Z</time>
      </trkpt>
      <trkpt lat="49.62066" lon="4.95925">
        <ele>190.48</ele>
        <time>2018-10-14T11:55:04Z</time>
      </trkpt>
      <trkpt lat="49.62056" lon="4.95936">
        <ele>191.44</ele>
        <time>2018-10-14T11:55:15Z</time>
      </trkpt>
      <trkpt lat="49.62043" lon="4.95942">
        <ele>192.4</ele>
        <time>2018-10-14T11:55:28Z</time>
      </trkpt>
      <trkpt lat="49.6204" lon="4.95945">
        <ele>192.4</ele>
        <time>2018-10-14T11:55:31Z</time>
      </trkpt>
      <trkpt lat="49.6202" lon="4.95952">
        <ele>192.4</ele>
        <time>2018-10-14T11:55:47Z</time>
      </trkpt>
      <trkpt lat="49.62002" lon="4.95949">
        <ele>189.04</ele>
        <time>2018-10-14T11:56:02Z</time>
      </trkpt>
      <trkpt lat="49.61985" lon="4.95942">
        <ele>187.11</ele>
        <time>2018-10-14T11:56:19Z</time>
      </trkpt>
      <trkpt lat="49.6197" lon="4.95938">
        <ele>187.59</ele>
        <time>2018-10-14T11:56:33Z</time>
      </trkpt>
      <trkpt lat="49.61956" lon="4.95932">
        <ele>186.15</ele>
        <time>2018-10-14T11:56:47Z</time>
      </trkpt>
      <trkpt lat="49.61953" lon="4.95932">
        <ele>185.67</ele>
        <time>2018-10-14T11:56:50Z</time>
      </trkpt>
      <trkpt lat="49.6195" lon="4.95932">
        <ele>185.67</ele>
        <time>2018-10-14T11:56:53Z</time>
      </trkpt>
      <trkpt lat="49.61945" lon="4.95932">
        <ele>184.71</ele>
        <time>2018-10-14T11:56:59Z</time>
      </trkpt>
      <trkpt lat="49.61928" lon="4.95934">
        <ele>184.71</ele>
        <time>2018-10-14T11:57:14Z</time>
      </trkpt>
      <trkpt lat="49.61911" lon="4.95933">
        <ele>185.19</ele>
        <time>2018-10-14T11:57:29Z</time>
      </trkpt>
      <trkpt lat="49.61897" lon="4.95931">
        <ele>186.15</ele>
        <time>2018-10-14T11:57:41Z</time>
      </trkpt>
      <trkpt lat="49.61881" lon="4.9593">
        <ele>186.63</ele>
        <time>2018-10-14T11:57:54Z</time>
      </trkpt>
      <trkpt lat="49.61865" lon="4.95924">
        <ele>191.92</ele>
        <time>2018-10-14T11:58:09Z</time>
      </trkpt>
      <trkpt lat="49.6186" lon="4.95925">
        <ele>191.92</ele>
        <time>2018-10-14T11:58:14Z</time>
      </trkpt>
      <trkpt lat="49.61844" lon="4.95925">
        <ele>191.92</ele>
        <time>2018-10-14T11:58:29Z</time>
      </trkpt>
      <trkpt lat="49.61835" lon="4.95928">
        <ele>191.92</ele>
        <time>2018-10-14T11:58:38Z</time>
      </trkpt>
      <trkpt lat="49.61828" lon="4.95935">
        <ele>191.44</ele>
        <time>2018-10-14T11:58:45Z</time>
      </trkpt>
      <trkpt lat="49.61825" lon="4.95935">
        <ele>190.48</ele>
        <time>2018-10-14T11:58:48Z</time>
      </trkpt>
      <trkpt lat="49.6182" lon="4.95933">
        <ele>190</ele>
        <time>2018-10-14T11:58:53Z</time>
      </trkpt>
      <trkpt lat="49.6181" lon="4.95926">
        <ele>189.04</ele>
        <time>2018-10-14T11:59:04Z</time>
      </trkpt>
      <trkpt lat="49.61808" lon="4.95925">
        <ele>189.04</ele>
        <time>2018-10-14T11:59:06Z</time>
      </trkpt>
      <trkpt lat="49.618" lon="4.95921">
        <ele>189.04</ele>
        <time>2018-10-14T11:59:14Z</time>
      </trkpt>
      <trkpt lat="49.61799" lon="4.95919">
        <ele>189.04</ele>
        <time>2018-10-14T11:59:16Z</time>
      </trkpt>
      <trkpt lat="49.61791" lon="4.95915">
        <ele>189.04</ele>
        <time>2018-10-14T11:59:24Z</time>
      </trkpt>
      <trkpt lat="49.61772" lon="4.95905">
        <ele>191.92</ele>
        <time>2018-10-14T11:59:41Z</time>
      </trkpt>
      <trkpt lat="49.61758" lon="4.95897">
        <ele>195.28</ele>
        <time>2018-10-14T11:59:54Z</time>
      </trkpt>
      <trkpt lat="49.61745" lon="4.95886">
        <ele>197.69</ele>
        <time>2018-10-14T12:00:08Z</time>
      </trkpt>
      <trkpt lat="49.61738" lon="4.95879">
        <ele>197.69</ele>
        <time>2018-10-14T12:00:16Z</time>
      </trkpt>
      <trkpt lat="49.61724" lon="4.95865">
        <ele>201.53</ele>
        <time>2018-10-14T12:00:32Z</time>
      </trkpt>
      <trkpt lat="49.61714" lon="4.95849">
        <ele>202.01</ele>
        <time>2018-10-14T12:00:45Z</time>
      </trkpt>
      <trkpt lat="49.61701" lon="4.95834">
        <ele>202.49</ele>
        <time>2018-10-14T12:01:00Z</time>
      </trkpt>
      <trkpt lat="49.61691" lon="4.95819">
        <ele>208.26</ele>
        <time>2018-10-14T12:01:14Z</time>
      </trkpt>
      <trkpt lat="49.61691" lon="4.95818">
        <ele>209.7</ele>
        <time>2018-10-14T12:01:25Z</time>
      </trkpt>
      <trkpt lat="49.61686" lon="4.9581">
        <ele>211.63</ele>
        <time>2018-10-14T12:01:36Z</time>
      </trkpt>
      <trkpt lat="49.61677" lon="4.95792">
        <ele>214.99</ele>
        <time>2018-10-14T12:01:49Z</time>
      </trkpt>
      <trkpt lat="49.61667" lon="4.95771">
        <ele>216.43</ele>
        <time>2018-10-14T12:02:05Z</time>
      </trkpt>
      <trkpt lat="49.61657" lon="4.95751">
        <ele>217.88</ele>
        <time>2018-10-14T12:02:20Z</time>
      </trkpt>
      <trkpt lat="49.61651" lon="4.9574">
        <ele>219.32</ele>
        <time>2018-10-14T12:02:28Z</time>
      </trkpt>
      <trkpt lat="49.61646" lon="4.95727">
        <ele>221.24</ele>
        <time>2018-10-14T12:02:38Z</time>
      </trkpt>
      <trkpt lat="49.61644" lon="4.95717">
        <ele>222.2</ele>
        <time>2018-10-14T12:02:43Z</time>
      </trkpt>
      <trkpt lat="49.61637" lon="4.95697">
        <ele>222.68</ele>
        <time>2018-10-14T12:02:57Z</time>
      </trkpt>
      <trkpt lat="49.61632" lon="4.9567">
        <ele>225.57</ele>
        <time>2018-10-14T12:03:12Z</time>
      </trkpt>
      <trkpt lat="49.61628" lon="4.95641">
        <ele>227.49</ele>
        <time>2018-10-14T12:03:29Z</time>
      </trkpt>
      <trkpt lat="49.61627" lon="4.95613">
        <ele>229.41</ele>
        <time>2018-10-14T12:03:45Z</time>
      </trkpt>
      <trkpt lat="49.61627" lon="4.95587">
        <ele>230.85</ele>
        <time>2018-10-14T12:04:01Z</time>
      </trkpt>
      <trkpt lat="49.6163" lon="4.95559">
        <ele>231.81</ele>
        <time>2018-10-14T12:04:18Z</time>
      </trkpt>
      <trkpt lat="49.61631" lon="4.9555">
        <ele>232.78</ele>
        <time>2018-10-14T12:04:23Z</time>
      </trkpt>
      <trkpt lat="49.61634" lon="4.95519">
        <ele>235.18</ele>
        <time>2018-10-14T12:04:41Z</time>
      </trkpt>
      <trkpt lat="49.61634" lon="4.95492">
        <ele>238.06</ele>
        <time>2018-10-14T12:04:58Z</time>
      </trkpt>
      <trkpt lat="49.61634" lon="4.95463">
        <ele>239.51</ele>
        <time>2018-10-14T12:05:15Z</time>
      </trkpt>
      <trkpt lat="49.61634" lon="4.95443">
        <ele>240.47</ele>
        <time>2018-10-14T12:05:27Z</time>
      </trkpt>
      <trkpt lat="49.61633" lon="4.95422">
        <ele>241.43</ele>
        <time>2018-10-14T12:05:39Z</time>
      </trkpt>
      <trkpt lat="49.61632" lon="4.95394">
        <ele>243.35</ele>
        <time>2018-10-14T12:05:56Z</time>
      </trkpt>
      <trkpt lat="49.61631" lon="4.95361">
        <ele>244.79</ele>
        <time>2018-10-14T12:06:15Z</time>
      </trkpt>
      <trkpt lat="49.61627" lon="4.95333">
        <ele>244.79</ele>
        <time>2018-10-14T12:06:32Z</time>
      </trkpt>
      <trkpt lat="49.61625" lon="4.95323">
        <ele>245.27</ele>
        <time>2018-10-14T12:06:38Z</time>
      </trkpt>
      <trkpt lat="49.61623" lon="4.95315">
        <ele>245.75</ele>
        <time>2018-10-14T12:06:43Z</time>
      </trkpt>
      <trkpt lat="49.61617" lon="4.95286">
        <ele>248.64</ele>
        <time>2018-10-14T12:07:02Z</time>
      </trkpt>
      <trkpt lat="49.61611" lon="4.95261">
        <ele>249.12</ele>
        <time>2018-10-14T12:07:17Z</time>
      </trkpt>
      <trkpt lat="49.61605" lon="4.95234">
        <ele>250.08</ele>
        <time>2018-10-14T12:07:33Z</time>
      </trkpt>
      <trkpt lat="49.61599" lon="4.95209">
        <ele>250.56</ele>
        <time>2018-10-14T12:07:49Z</time>
      </trkpt>
      <trkpt lat="49.61591" lon="4.9518">
        <ele>251.52</ele>
        <time>2018-10-14T12:08:07Z</time>
      </trkpt>
      <trkpt lat="49.61585" lon="4.95156">
        <ele>252</ele>
        <time>2018-10-14T12:08:22Z</time>
      </trkpt>
      <trkpt lat="49.61579" lon="4.95128">
        <ele>253.93</ele>
        <time>2018-10-14T12:08:40Z</time>
      </trkpt>
      <trkpt lat="49.61578" lon="4.95125">
        <ele>254.41</ele>
        <time>2018-10-14T12:08:42Z</time>
      </trkpt>
      <trkpt lat="49.61568" lon="4.95099">
        <ele>253.93</ele>
        <time>2018-10-14T12:09:00Z</time>
      </trkpt>
      <trkpt lat="49.61561" lon="4.95078">
        <ele>255.37</ele>
        <time>2018-10-14T12:09:15Z</time>
      </trkpt>
      <trkpt lat="49.61555" lon="4.95054">
        <ele>257.77</ele>
        <time>2018-10-14T12:09:31Z</time>
      </trkpt>
      <trkpt lat="49.61545" lon="4.95031">
        <ele>258.73</ele>
        <time>2018-10-14T12:09:47Z</time>
      </trkpt>
      <trkpt lat="49.61533" lon="4.95006">
        <ele>259.21</ele>
        <time>2018-10-14T12:10:03Z</time>
      </trkpt>
      <trkpt lat="49.61522" lon="4.94984">
        <ele>259.21</ele>
        <time>2018-10-14T12:10:18Z</time>
      </trkpt>
      <trkpt lat="49.61509" lon="4.94966">
        <ele>259.21</ele>
        <time>2018-10-14T12:10:33Z</time>
      </trkpt>
      <trkpt lat="49.61507" lon="4.94961">
        <ele>259.69</ele>
        <time>2018-10-14T12:10:37Z</time>
      </trkpt>
      <trkpt lat="49.61497" lon="4.94945">
        <ele>259.21</ele>
        <time>2018-10-14T12:10:49Z</time>
      </trkpt>
      <trkpt lat="49.61483" lon="4.94924">
        <ele>262.1</ele>
        <time>2018-10-14T12:11:06Z</time>
      </trkpt>
      <trkpt lat="49.6147" lon="4.94911">
        <ele>262.1</ele>
        <time>2018-10-14T12:11:20Z</time>
      </trkpt>
      <trkpt lat="49.61464" lon="4.94903">
        <ele>262.1</ele>
        <time>2018-10-14T12:11:27Z</time>
      </trkpt>
      <trkpt lat="49.61455" lon="4.94891">
        <ele>262.58</ele>
        <time>2018-10-14T12:11:37Z</time>
      </trkpt>
      <trkpt lat="49.6144" lon="4.9487">
        <ele>263.06</ele>
        <time>2018-10-14T12:11:54Z</time>
      </trkpt>
      <trkpt lat="49.61426" lon="4.9485">
        <ele>263.06</ele>
        <time>2018-10-14T12:12:11Z</time>
      </trkpt>
      <trkpt lat="49.61412" lon="4.94828">
        <ele>264.98</ele>
        <time>2018-10-14T12:12:29Z</time>
      </trkpt>
      <trkpt lat="49.61397" lon="4.9481">
        <ele>263.54</ele>
        <time>2018-10-14T12:12:45Z</time>
      </trkpt>
      <trkpt lat="49.61388" lon="4.948">
        <ele>264.02</ele>
        <time>2018-10-14T12:12:55Z</time>
      </trkpt>
      <trkpt lat="49.61381" lon="4.94789">
        <ele>264.02</ele>
        <time>2018-10-14T12:13:04Z</time>
      </trkpt>
      <trkpt lat="49.61369" lon="4.94766">
        <ele>264.5</ele>
        <time>2018-10-14T12:13:21Z</time>
      </trkpt>
      <trkpt lat="49.6136" lon="4.94753">
        <ele>263.54</ele>
        <time>2018-10-14T12:13:31Z</time>
      </trkpt>
      <trkpt lat="49.61344" lon="4.94732">
        <ele>265.46</ele>
        <time>2018-10-14T12:13:49Z</time>
      </trkpt>
      <trkpt lat="49.6133" lon="4.94715">
        <ele>266.42</ele>
        <time>2018-10-14T12:14:04Z</time>
      </trkpt>
      <trkpt lat="49.61315" lon="4.94695">
        <ele>271.23</ele>
        <time>2018-10-14T12:14:22Z</time>
      </trkpt>
      <trkpt lat="49.61303" lon="4.9468">
        <ele>274.11</ele>
        <time>2018-10-14T12:14:37Z</time>
      </trkpt>
      <trkpt lat="49.61298" lon="4.94673">
        <ele>277.96</ele>
        <time>2018-10-14T12:14:48Z</time>
      </trkpt>
      <trkpt lat="49.61286" lon="4.9466">
        <ele>283.73</ele>
        <time>2018-10-14T12:15:03Z</time>
      </trkpt>
      <trkpt lat="49.61272" lon="4.9464">
        <ele>285.65</ele>
        <time>2018-10-14T12:15:19Z</time>
      </trkpt>
      <trkpt lat="49.61263" lon="4.94632">
        <ele>282.77</ele>
        <time>2018-10-14T12:15:26Z</time>
      </trkpt>
      <trkpt lat="49.61261" lon="4.9463">
        <ele>281.8</ele>
        <time>2018-10-14T12:15:28Z</time>
      </trkpt>
      <trkpt lat="49.61246" lon="4.94613">
        <ele>279.4</ele>
        <time>2018-10-14T12:15:43Z</time>
      </trkpt>
      <trkpt lat="49.61236" lon="4.94604">
        <ele>277.48</ele>
        <time>2018-10-14T12:15:53Z</time>
      </trkpt>
      <trkpt lat="49.61221" lon="4.94585">
        <ele>273.63</ele>
        <time>2018-10-14T12:16:10Z</time>
      </trkpt>
      <trkpt lat="49.61208" lon="4.94568">
        <ele>270.75</ele>
        <time>2018-10-14T12:16:26Z</time>
      </trkpt>
      <trkpt lat="49.61194" lon="4.94542">
        <ele>272.67</ele>
        <time>2018-10-14T12:16:43Z</time>
      </trkpt>
      <trkpt lat="49.61176" lon="4.94516">
        <ele>274.59</ele>
        <time>2018-10-14T12:17:04Z</time>
      </trkpt>
      <trkpt lat="49.6116" lon="4.94496">
        <ele>275.07</ele>
        <time>2018-10-14T12:17:22Z</time>
      </trkpt>
      <trkpt lat="49.61157" lon="4.94492">
        <ele>275.07</ele>
        <time>2018-10-14T12:17:26Z</time>
      </trkpt>
      <trkpt lat="49.61142" lon="4.94474">
        <ele>275.07</ele>
        <time>2018-10-14T12:17:42Z</time>
      </trkpt>
      <trkpt lat="49.61126" lon="4.94454">
        <ele>277.48</ele>
        <time>2018-10-14T12:18:00Z</time>
      </trkpt>
      <trkpt lat="49.61108" lon="4.94432">
        <ele>278.92</ele>
        <time>2018-10-14T12:18:19Z</time>
      </trkpt>
      <trkpt lat="49.61093" lon="4.94413">
        <ele>279.4</ele>
        <time>2018-10-14T12:18:36Z</time>
      </trkpt>
      <trkpt lat="49.61079" lon="4.94394">
        <ele>281.8</ele>
        <time>2018-10-14T12:18:53Z</time>
      </trkpt>
      <trkpt lat="49.6106" lon="4.94375">
        <ele>283.25</ele>
        <time>2018-10-14T12:19:12Z</time>
      </trkpt>
      <trkpt lat="49.61047" lon="4.9436">
        <ele>284.21</ele>
        <time>2018-10-14T12:19:26Z</time>
      </trkpt>
      <trkpt lat="49.61033" lon="4.94341">
        <ele>284.69</ele>
        <time>2018-10-14T12:19:43Z</time>
      </trkpt>
      <trkpt lat="49.61024" lon="4.94329">
        <ele>284.69</ele>
        <time>2018-10-14T12:19:52Z</time>
      </trkpt>
      <trkpt lat="49.61022" lon="4.94328">
        <ele>284.21</ele>
        <time>2018-10-14T12:19:55Z</time>
      </trkpt>
      <trkpt lat="49.61005" lon="4.94305">
        <ele>285.17</ele>
        <time>2018-10-14T12:20:13Z</time>
      </trkpt>
      <trkpt lat="49.61002" lon="4.943">
        <ele>284.69</ele>
        <time>2018-10-14T12:20:17Z</time>
      </trkpt>
      <trkpt lat="49.60998" lon="4.94293">
        <ele>285.17</ele>
        <time>2018-10-14T12:20:22Z</time>
      </trkpt>
      <trkpt lat="49.60989" lon="4.94281">
        <ele>284.69</ele>
        <time>2018-10-14T12:20:32Z</time>
      </trkpt>
      <trkpt lat="49.60986" lon="4.94275">
        <ele>284.21</ele>
        <time>2018-10-14T12:20:37Z</time>
      </trkpt>
      <trkpt lat="49.60975" lon="4.94242">
        <ele>283.73</ele>
        <time>2018-10-14T12:20:57Z</time>
      </trkpt>
      <trkpt lat="49.60966" lon="4.94217">
        <ele>284.21</ele>
        <time>2018-10-14T12:21:13Z</time>
      </trkpt>
      <trkpt lat="49.60965" lon="4.94212">
        <ele>284.21</ele>
        <time>2018-10-14T12:21:16Z</time>
      </trkpt>
      <trkpt lat="49.60955" lon="4.94189">
        <ele>283.25</ele>
        <time>2018-10-14T12:21:32Z</time>
      </trkpt>
      <trkpt lat="49.60945" lon="4.94164">
        <ele>284.21</ele>
        <time>2018-10-14T12:21:48Z</time>
      </trkpt>
      <trkpt lat="49.60935" lon="4.94141">
        <ele>285.65</ele>
        <time>2018-10-14T12:22:04Z</time>
      </trkpt>
      <trkpt lat="49.60934" lon="4.9414">
        <ele>286.13</ele>
        <time>2018-10-14T12:22:05Z</time>
      </trkpt>
      <trkpt lat="49.60931" lon="4.94136">
        <ele>286.13</ele>
        <time>2018-10-14T12:22:09Z</time>
      </trkpt>
      <trkpt lat="49.60926" lon="4.94122">
        <ele>288.05</ele>
        <time>2018-10-14T12:22:18Z</time>
      </trkpt>
      <trkpt lat="49.60917" lon="4.9411">
        <ele>289.49</ele>
        <time>2018-10-14T12:22:29Z</time>
      </trkpt>
      <trkpt lat="49.60914" lon="4.9411">
        <ele>289.49</ele>
        <time>2018-10-14T12:22:37Z</time>
      </trkpt>
      <trkpt lat="49.60912" lon="4.94088">
        <ele>289.01</ele>
        <time>2018-10-14T12:22:52Z</time>
      </trkpt>
      <trkpt lat="49.60911" lon="4.94086">
        <ele>289.01</ele>
        <time>2018-10-14T12:22:53Z</time>
      </trkpt>
      <trkpt lat="49.60908" lon="4.94083">
        <ele>289.01</ele>
        <time>2018-10-14T12:22:56Z</time>
      </trkpt>
      <trkpt lat="49.609" lon="4.94063">
        <ele>289.49</ele>
        <time>2018-10-14T12:23:10Z</time>
      </trkpt>
      <trkpt lat="49.60897" lon="4.94056">
        <ele>289.01</ele>
        <time>2018-10-14T12:23:15Z</time>
      </trkpt>
      <trkpt lat="49.60892" lon="4.94046">
        <ele>289.97</ele>
        <time>2018-10-14T12:23:22Z</time>
      </trkpt>
      <trkpt lat="49.60879" lon="4.94015">
        <ele>290.46</ele>
        <time>2018-10-14T12:23:42Z</time>
      </trkpt>
      <trkpt lat="49.60868" lon="4.93987">
        <ele>291.9</ele>
        <time>2018-10-14T12:24:00Z</time>
      </trkpt>
      <trkpt lat="49.60856" lon="4.93958">
        <ele>292.38</ele>
        <time>2018-10-14T12:24:19Z</time>
      </trkpt>
      <trkpt lat="49.60842" lon="4.9393">
        <ele>293.34</ele>
        <time>2018-10-14T12:24:39Z</time>
      </trkpt>
      <trkpt lat="49.60829" lon="4.93905">
        <ele>293.82</ele>
        <time>2018-10-14T12:24:57Z</time>
      </trkpt>
      <trkpt lat="49.60814" lon="4.93877">
        <ele>295.26</ele>
        <time>2018-10-14T12:25:18Z</time>
      </trkpt>
      <trkpt lat="49.60809" lon="4.93868">
        <ele>295.26</ele>
        <time>2018-10-14T12:25:26Z</time>
      </trkpt>
      <trkpt lat="49.60801" lon="4.93854">
        <ele>295.74</ele>
        <time>2018-10-14T12:25:35Z</time>
      </trkpt>
      <trkpt lat="49.60798" lon="4.93853">
        <ele>295.26</ele>
        <time>2018-10-14T12:25:38Z</time>
      </trkpt>
      <trkpt lat="49.60787" lon="4.93828">
        <ele>294.78</ele>
        <time>2018-10-14T12:25:55Z</time>
      </trkpt>
      <trkpt lat="49.60779" lon="4.93811">
        <ele>294.3</ele>
        <time>2018-10-14T12:26:06Z</time>
      </trkpt>
      <trkpt lat="49.60773" lon="4.93805">
        <ele>294.3</ele>
        <time>2018-10-14T12:26:13Z</time>
      </trkpt>
      <trkpt lat="49.6076" lon="4.9378">
        <ele>295.26</ele>
        <time>2018-10-14T12:26:31Z</time>
      </trkpt>
      <trkpt lat="49.60757" lon="4.93775">
        <ele>295.26</ele>
        <time>2018-10-14T12:26:35Z</time>
      </trkpt>
      <trkpt lat="49.60738" lon="4.93743">
        <ele>296.7</ele>
        <time>2018-10-14T12:26:58Z</time>
      </trkpt>
      <trkpt lat="49.60728" lon="4.93732">
        <ele>296.7</ele>
        <time>2018-10-14T12:27:09Z</time>
      </trkpt>
      <trkpt lat="49.60717" lon="4.93717">
        <ele>297.67</ele>
        <time>2018-10-14T12:27:22Z</time>
      </trkpt>
      <trkpt lat="49.60702" lon="4.93696">
        <ele>296.7</ele>
        <time>2018-10-14T12:27:39Z</time>
      </trkpt>
      <trkpt lat="49.60698" lon="4.93689">
        <ele>297.18</ele>
        <time>2018-10-14T12:27:45Z</time>
      </trkpt>
      <trkpt lat="49.60693" lon="4.93681">
        <ele>297.67</ele>
        <time>2018-10-14T12:27:50Z</time>
      </trkpt>
      <trkpt lat="49.60677" lon="4.93656">
        <ele>298.15</ele>
        <time>2018-10-14T12:28:09Z</time>
      </trkpt>
      <trkpt lat="49.60668" lon="4.93644">
        <ele>299.59</ele>
        <time>2018-10-14T12:28:21Z</time>
      </trkpt>
      <trkpt lat="49.60654" lon="4.93636">
        <ele>301.03</ele>
        <time>2018-10-14T12:28:35Z</time>
      </trkpt>
      <trkpt lat="49.60653" lon="4.93658">
        <ele>301.51</ele>
        <time>2018-10-14T12:28:48Z</time>
      </trkpt>
      <trkpt lat="49.60652" lon="4.9369">
        <ele>301.99</ele>
        <time>2018-10-14T12:29:06Z</time>
      </trkpt>
      <trkpt lat="49.6065" lon="4.93721">
        <ele>303.43</ele>
        <time>2018-10-14T12:29:24Z</time>
      </trkpt>
      <trkpt lat="49.60648" lon="4.93751">
        <ele>307.28</ele>
        <time>2018-10-14T12:29:42Z</time>
      </trkpt>
      <trkpt lat="49.60644" lon="4.93784">
        <ele>310.64</ele>
        <time>2018-10-14T12:30:00Z</time>
      </trkpt>
      <trkpt lat="49.6064" lon="4.93812">
        <ele>313.05</ele>
        <time>2018-10-14T12:30:16Z</time>
      </trkpt>
      <trkpt lat="49.60634" lon="4.93838">
        <ele>313.53</ele>
        <time>2018-10-14T12:30:32Z</time>
      </trkpt>
      <trkpt lat="49.6063" lon="4.93864">
        <ele>314.49</ele>
        <time>2018-10-14T12:30:48Z</time>
      </trkpt>
      <trkpt lat="49.60624" lon="4.93894">
        <ele>315.45</ele>
        <time>2018-10-14T12:31:06Z</time>
      </trkpt>
      <trkpt lat="49.60618" lon="4.93925">
        <ele>316.41</ele>
        <time>2018-10-14T12:31:25Z</time>
      </trkpt>
      <trkpt lat="49.60611" lon="4.93951">
        <ele>315.45</ele>
        <time>2018-10-14T12:31:42Z</time>
      </trkpt>
      <trkpt lat="49.60607" lon="4.93966">
        <ele>312.09</ele>
        <time>2018-10-14T12:31:54Z</time>
      </trkpt>
      <trkpt lat="49.60599" lon="4.93993">
        <ele>308.24</ele>
        <time>2018-10-14T12:32:12Z</time>
      </trkpt>
      <trkpt lat="49.60589" lon="4.94024">
        <ele>305.84</ele>
        <time>2018-10-14T12:32:34Z</time>
      </trkpt>
      <trkpt lat="49.60577" lon="4.94051">
        <ele>303.91</ele>
        <time>2018-10-14T12:32:52Z</time>
      </trkpt>
      <trkpt lat="49.60565" lon="4.94079">
        <ele>302.47</ele>
        <time>2018-10-14T12:33:12Z</time>
      </trkpt>
      <trkpt lat="49.60556" lon="4.94105">
        <ele>301.51</ele>
        <time>2018-10-14T12:33:30Z</time>
      </trkpt>
      <trkpt lat="49.60544" lon="4.94135">
        <ele>300.07</ele>
        <time>2018-10-14T12:33:49Z</time>
      </trkpt>
      <trkpt lat="49.60532" lon="4.94164">
        <ele>298.15</ele>
        <time>2018-10-14T12:34:08Z</time>
      </trkpt>
      <trkpt lat="49.60522" lon="4.9419">
        <ele>297.67</ele>
        <time>2018-10-14T12:34:26Z</time>
      </trkpt>
      <trkpt lat="49.60509" lon="4.94216">
        <ele>295.74</ele>
        <time>2018-10-14T12:34:44Z</time>
      </trkpt>
      <trkpt lat="49.60496" lon="4.94243">
        <ele>293.34</ele>
        <time>2018-10-14T12:35:04Z</time>
      </trkpt>
      <trkpt lat="49.60482" lon="4.94268">
        <ele>291.42</ele>
        <time>2018-10-14T12:35:23Z</time>
      </trkpt>
      <trkpt lat="49.60472" lon="4.94288">
        <ele>288.05</ele>
        <time>2018-10-14T12:35:38Z</time>
      </trkpt>
      <trkpt lat="49.60469" lon="4.94295">
        <ele>288.05</ele>
        <time>2018-10-14T12:35:42Z</time>
      </trkpt>
      <trkpt lat="49.60454" lon="4.94321">
        <ele>288.05</ele>
        <time>2018-10-14T12:36:02Z</time>
      </trkpt>
      <trkpt lat="49.60439" lon="4.94348">
        <ele>288.05</ele>
        <time>2018-10-14T12:36:24Z</time>
      </trkpt>
      <trkpt lat="49.60426" lon="4.94372">
        <ele>288.05</ele>
        <time>2018-10-14T12:36:42Z</time>
      </trkpt>
      <trkpt lat="49.60411" lon="4.94401">
        <ele>287.57</ele>
        <time>2018-10-14T12:37:03Z</time>
      </trkpt>
      <trkpt lat="49.60396" lon="4.94424">
        <ele>286.61</ele>
        <time>2018-10-14T12:37:22Z</time>
      </trkpt>
      <trkpt lat="49.60376" lon="4.94445">
        <ele>286.61</ele>
        <time>2018-10-14T12:37:43Z</time>
      </trkpt>
      <trkpt lat="49.60357" lon="4.94458">
        <ele>285.17</ele>
        <time>2018-10-14T12:38:02Z</time>
      </trkpt>
      <trkpt lat="49.60336" lon="4.94468">
        <ele>283.25</ele>
        <time>2018-10-14T12:38:22Z</time>
      </trkpt>
      <trkpt lat="49.60315" lon="4.9448">
        <ele>281.32</ele>
        <time>2018-10-14T12:38:42Z</time>
      </trkpt>
      <trkpt lat="49.6029" lon="4.94489">
        <ele>277.48</ele>
        <time>2018-10-14T12:39:04Z</time>
      </trkpt>
      <trkpt lat="49.6027" lon="4.94498">
        <ele>275.56</ele>
        <time>2018-10-14T12:39:23Z</time>
      </trkpt>
      <trkpt lat="49.60247" lon="4.94516">
        <ele>272.67</ele>
        <time>2018-10-14T12:39:46Z</time>
      </trkpt>
      <trkpt lat="49.6023" lon="4.9453">
        <ele>270.27</ele>
        <time>2018-10-14T12:40:04Z</time>
      </trkpt>
      <trkpt lat="49.60226" lon="4.94535">
        <ele>270.27</ele>
        <time>2018-10-14T12:40:09Z</time>
      </trkpt>
      <trkpt lat="49.6022" lon="4.94536">
        <ele>270.75</ele>
        <time>2018-10-14T12:40:14Z</time>
      </trkpt>
      <trkpt lat="49.602" lon="4.94548">
        <ele>273.63</ele>
        <time>2018-10-14T12:40:33Z</time>
      </trkpt>
      <trkpt lat="49.60187" lon="4.94548">
        <ele>275.07</ele>
        <time>2018-10-14T12:40:45Z</time>
      </trkpt>
      <trkpt lat="49.60174" lon="4.94534">
        <ele>276.04</ele>
        <time>2018-10-14T12:40:59Z</time>
      </trkpt>
      <trkpt lat="49.60159" lon="4.94519">
        <ele>277.48</ele>
        <time>2018-10-14T12:41:14Z</time>
      </trkpt>
      <trkpt lat="49.60141" lon="4.94511">
        <ele>278.92</ele>
        <time>2018-10-14T12:41:30Z</time>
      </trkpt>
      <trkpt lat="49.60126" lon="4.94506">
        <ele>279.4</ele>
        <time>2018-10-14T12:41:45Z</time>
      </trkpt>
      <trkpt lat="49.60118" lon="4.94505">
        <ele>279.4</ele>
        <time>2018-10-14T12:41:52Z</time>
      </trkpt>
      <trkpt lat="49.60106" lon="4.94503">
        <ele>279.88</ele>
        <time>2018-10-14T12:42:03Z</time>
      </trkpt>
      <trkpt lat="49.60089" lon="4.94498">
        <ele>280.36</ele>
        <time>2018-10-14T12:42:18Z</time>
      </trkpt>
      <trkpt lat="49.60073" lon="4.94495">
        <ele>282.28</ele>
        <time>2018-10-14T12:42:31Z</time>
      </trkpt>
      <trkpt lat="49.6007" lon="4.94497">
        <ele>282.77</ele>
        <time>2018-10-14T12:42:35Z</time>
      </trkpt>
      <trkpt lat="49.60053" lon="4.94492">
        <ele>286.13</ele>
        <time>2018-10-14T12:42:51Z</time>
      </trkpt>
      <trkpt lat="49.60046" lon="4.94491">
        <ele>286.61</ele>
        <time>2018-10-14T12:42:57Z</time>
      </trkpt>
      <trkpt lat="49.60038" lon="4.9449">
        <ele>288.05</ele>
        <time>2018-10-14T12:43:04Z</time>
      </trkpt>
      <trkpt lat="49.60023" lon="4.94488">
        <ele>289.01</ele>
        <time>2018-10-14T12:43:19Z</time>
      </trkpt>
      <trkpt lat="49.6002" lon="4.94488">
        <ele>289.49</ele>
        <time>2018-10-14T12:43:21Z</time>
      </trkpt>
      <trkpt lat="49.60008" lon="4.94485">
        <ele>290.94</ele>
        <time>2018-10-14T12:43:32Z</time>
      </trkpt>
      <trkpt lat="49.60001" lon="4.94484">
        <ele>291.9</ele>
        <time>2018-10-14T12:43:38Z</time>
      </trkpt>
      <trkpt lat="49.59998" lon="4.94485">
        <ele>292.38</ele>
        <time>2018-10-14T12:43:41Z</time>
      </trkpt>
      <trkpt lat="49.59993" lon="4.94483">
        <ele>292.86</ele>
        <time>2018-10-14T12:43:45Z</time>
      </trkpt>
      <trkpt lat="49.59981" lon="4.9448">
        <ele>293.82</ele>
        <time>2018-10-14T12:43:56Z</time>
      </trkpt>
      <trkpt lat="49.59962" lon="4.94477">
        <ele>294.3</ele>
        <time>2018-10-14T12:44:13Z</time>
      </trkpt>
      <trkpt lat="49.59951" lon="4.94475">
        <ele>296.22</ele>
        <time>2018-10-14T12:44:24Z</time>
      </trkpt>
      <trkpt lat="49.59934" lon="4.94474">
        <ele>297.67</ele>
        <time>2018-10-14T12:44:40Z</time>
      </trkpt>
      <trkpt lat="49.59917" lon="4.94473">
        <ele>298.15</ele>
        <time>2018-10-14T12:44:55Z</time>
      </trkpt>
      <trkpt lat="49.59898" lon="4.94474">
        <ele>297.18</ele>
        <time>2018-10-14T12:45:11Z</time>
      </trkpt>
      <trkpt lat="49.59886" lon="4.94472">
        <ele>296.22</ele>
        <time>2018-10-14T12:45:21Z</time>
      </trkpt>
      <trkpt lat="49.59884" lon="4.94473">
        <ele>296.22</ele>
        <time>2018-10-14T12:45:23Z</time>
      </trkpt>
      <trkpt lat="49.5988" lon="4.94474">
        <ele>296.22</ele>
        <time>2018-10-14T12:45:27Z</time>
      </trkpt>
      <trkpt lat="49.59869" lon="4.94471">
        <ele>295.26</ele>
        <time>2018-10-14T12:45:36Z</time>
      </trkpt>
      <trkpt lat="49.59865" lon="4.94472">
        <ele>295.26</ele>
        <time>2018-10-14T12:45:41Z</time>
      </trkpt>
      <trkpt lat="49.59847" lon="4.9447">
        <ele>293.82</ele>
        <time>2018-10-14T12:45:56Z</time>
      </trkpt>
      <trkpt lat="49.59829" lon="4.9447">
        <ele>292.38</ele>
        <time>2018-10-14T12:46:11Z</time>
      </trkpt>
      <trkpt lat="49.59829" lon="4.94469">
        <ele>292.38</ele>
        <time>2018-10-14T12:46:12Z</time>
      </trkpt>
      <trkpt lat="49.59813" lon="4.94467">
        <ele>290.46</ele>
        <time>2018-10-14T12:46:25Z</time>
      </trkpt>
      <trkpt lat="49.59793" lon="4.94463">
        <ele>289.01</ele>
        <time>2018-10-14T12:46:42Z</time>
      </trkpt>
      <trkpt lat="49.59792" lon="4.94463">
        <ele>288.53</ele>
        <time>2018-10-14T12:46:43Z</time>
      </trkpt>
      <trkpt lat="49.59785" lon="4.94466">
        <ele>288.05</ele>
        <time>2018-10-14T12:46:51Z</time>
      </trkpt>
      <trkpt lat="49.59764" lon="4.94463">
        <ele>288.05</ele>
        <time>2018-10-14T12:47:08Z</time>
      </trkpt>
      <trkpt lat="49.59746" lon="4.94461">
        <ele>288.53</ele>
        <time>2018-10-14T12:47:24Z</time>
      </trkpt>
      <trkpt lat="49.59735" lon="4.94458">
        <ele>287.57</ele>
        <time>2018-10-14T12:47:33Z</time>
      </trkpt>
      <trkpt lat="49.5973" lon="4.94459">
        <ele>288.53</ele>
        <time>2018-10-14T12:47:38Z</time>
      </trkpt>
      <trkpt lat="49.59713" lon="4.94456">
        <ele>287.57</ele>
        <time>2018-10-14T12:47:52Z</time>
      </trkpt>
      <trkpt lat="49.5971" lon="4.94458">
        <ele>288.05</ele>
        <time>2018-10-14T12:47:55Z</time>
      </trkpt>
      <trkpt lat="49.59708" lon="4.94458">
        <ele>288.05</ele>
        <time>2018-10-14T12:47:57Z</time>
      </trkpt>
      <trkpt lat="49.59697" lon="4.94456">
        <ele>287.57</ele>
        <time>2018-10-14T12:48:06Z</time>
      </trkpt>
      <trkpt lat="49.59692" lon="4.94457">
        <ele>287.09</ele>
        <time>2018-10-14T12:48:12Z</time>
      </trkpt>
      <trkpt lat="49.59672" lon="4.94454">
        <ele>286.61</ele>
        <time>2018-10-14T12:48:29Z</time>
      </trkpt>
      <trkpt lat="49.5966" lon="4.94451">
        <ele>285.65</ele>
        <time>2018-10-14T12:48:39Z</time>
      </trkpt>
      <trkpt lat="49.59656" lon="4.94454">
        <ele>286.13</ele>
        <time>2018-10-14T12:48:44Z</time>
      </trkpt>
      <trkpt lat="49.59641" lon="4.9445">
        <ele>285.17</ele>
        <time>2018-10-14T12:48:57Z</time>
      </trkpt>
      <trkpt lat="49.59629" lon="4.94451">
        <ele>285.17</ele>
        <time>2018-10-14T12:49:08Z</time>
      </trkpt>
      <trkpt lat="49.59608" lon="4.94448">
        <ele>281.8</ele>
        <time>2018-10-14T12:49:26Z</time>
      </trkpt>
      <trkpt lat="49.59591" lon="4.94446">
        <ele>279.88</ele>
        <time>2018-10-14T12:49:40Z</time>
      </trkpt>
      <trkpt lat="49.59576" lon="4.94446">
        <ele>276.04</ele>
        <time>2018-10-14T12:49:55Z</time>
      </trkpt>
      <trkpt lat="49.59571" lon="4.94444">
        <ele>275.56</ele>
        <time>2018-10-14T12:50:00Z</time>
      </trkpt>
      <trkpt lat="49.59547" lon="4.94438">
        <ele>273.63</ele>
        <time>2018-10-14T12:50:18Z</time>
      </trkpt>
      <trkpt lat="49.59539" lon="4.94442">
        <ele>271.23</ele>
        <time>2018-10-14T12:50:29Z</time>
      </trkpt>
      <trkpt lat="49.5953" lon="4.94441">
        <ele>269.79</ele>
        <time>2018-10-14T12:50:37Z</time>
      </trkpt>
      <trkpt lat="49.59507" lon="4.94431">
        <ele>268.83</ele>
        <time>2018-10-14T12:50:55Z</time>
      </trkpt>
      <trkpt lat="49.59489" lon="4.94436">
        <ele>263.54</ele>
        <time>2018-10-14T12:51:14Z</time>
      </trkpt>
      <trkpt lat="49.59474" lon="4.94435">
        <ele>262.1</ele>
        <time>2018-10-14T12:51:29Z</time>
      </trkpt>
      <trkpt lat="49.59453" lon="4.94429">
        <ele>261.14</ele>
        <time>2018-10-14T12:51:45Z</time>
      </trkpt>
      <trkpt lat="49.59433" lon="4.94421">
        <ele>259.21</ele>
        <time>2018-10-14T12:52:01Z</time>
      </trkpt>
      <trkpt lat="49.59426" lon="4.94397">
        <ele>257.77</ele>
        <time>2018-10-14T12:52:18Z</time>
      </trkpt>
      <trkpt lat="49.59425" lon="4.9436">
        <ele>258.25</ele>
        <time>2018-10-14T12:52:38Z</time>
      </trkpt>
      <trkpt lat="49.59423" lon="4.94319">
        <ele>258.25</ele>
        <time>2018-10-14T12:52:59Z</time>
      </trkpt>
      <trkpt lat="49.5942" lon="4.94282">
        <ele>257.29</ele>
        <time>2018-10-14T12:53:20Z</time>
      </trkpt>
      <trkpt lat="49.59416" lon="4.94253">
        <ele>254.41</ele>
        <time>2018-10-14T12:53:38Z</time>
      </trkpt>
      <trkpt lat="49.59411" lon="4.94226">
        <ele>251.04</ele>
        <time>2018-10-14T12:53:56Z</time>
      </trkpt>
      <trkpt lat="49.59393" lon="4.94218">
        <ele>248.64</ele>
        <time>2018-10-14T12:54:13Z</time>
      </trkpt>
      <trkpt lat="49.59372" lon="4.94208">
        <ele>246.72</ele>
        <time>2018-10-14T12:54:32Z</time>
      </trkpt>
      <trkpt lat="49.59352" lon="4.94199">
        <ele>245.27</ele>
        <time>2018-10-14T12:54:49Z</time>
      </trkpt>
      <trkpt lat="49.59337" lon="4.94195">
        <ele>242.87</ele>
        <time>2018-10-14T12:55:04Z</time>
      </trkpt>
      <trkpt lat="49.59317" lon="4.94199">
        <ele>240.47</ele>
        <time>2018-10-14T12:55:22Z</time>
      </trkpt>
      <trkpt lat="49.59298" lon="4.94203">
        <ele>236.62</ele>
        <time>2018-10-14T12:55:40Z</time>
      </trkpt>
      <trkpt lat="49.59282" lon="4.94208">
        <ele>232.3</ele>
        <time>2018-10-14T12:55:56Z</time>
      </trkpt>
      <trkpt lat="49.59274" lon="4.94218">
        <ele>230.37</ele>
        <time>2018-10-14T12:56:07Z</time>
      </trkpt>
      <trkpt lat="49.59277" lon="4.94228">
        <ele>228.93</ele>
        <time>2018-10-14T12:56:13Z</time>
      </trkpt>
      <trkpt lat="49.59278" lon="4.94236">
        <ele>228.45</ele>
        <time>2018-10-14T12:56:17Z</time>
      </trkpt>
      <trkpt lat="49.59276" lon="4.94247">
        <ele>228.45</ele>
        <time>2018-10-14T12:56:32Z</time>
      </trkpt>
      <trkpt lat="49.59267" lon="4.94249">
        <ele>227.49</ele>
        <time>2018-10-14T12:56:42Z</time>
      </trkpt>
      <trkpt lat="49.59257" lon="4.94236">
        <ele>227.01</ele>
        <time>2018-10-14T12:56:52Z</time>
      </trkpt>
      <trkpt lat="49.59242" lon="4.94209">
        <ele>229.89</ele>
        <time>2018-10-14T12:57:13Z</time>
      </trkpt>
      <trkpt lat="49.59228" lon="4.94191">
        <ele>230.85</ele>
        <time>2018-10-14T12:57:28Z</time>
      </trkpt>
      <trkpt lat="49.59222" lon="4.94184">
        <ele>231.81</ele>
        <time>2018-10-14T12:57:34Z</time>
      </trkpt>
      <trkpt lat="49.59205" lon="4.94161">
        <ele>233.26</ele>
        <time>2018-10-14T12:57:52Z</time>
      </trkpt>
      <trkpt lat="49.59191" lon="4.94142">
        <ele>234.22</ele>
        <time>2018-10-14T12:58:07Z</time>
      </trkpt>
      <trkpt lat="49.59178" lon="4.9412">
        <ele>229.89</ele>
        <time>2018-10-14T12:58:24Z</time>
      </trkpt>
      <trkpt lat="49.59172" lon="4.94109">
        <ele>227.49</ele>
        <time>2018-10-14T12:58:33Z</time>
      </trkpt>
      <trkpt lat="49.59171" lon="4.94107">
        <ele>227.01</ele>
        <time>2018-10-14T12:58:35Z</time>
      </trkpt>
      <trkpt lat="49.5917" lon="4.94111">
        <ele>226.05</ele>
        <time>2018-10-14T12:58:39Z</time>
      </trkpt>
      <trkpt lat="49.59179" lon="4.9414">
        <ele>225.57</ele>
        <time>2018-10-14T12:58:57Z</time>
      </trkpt>
      <trkpt lat="49.59192" lon="4.94164">
        <ele>223.64</ele>
        <time>2018-10-14T12:59:15Z</time>
      </trkpt>
      <trkpt lat="49.59196" lon="4.94171">
        <ele>223.16</ele>
        <time>2018-10-14T12:59:20Z</time>
      </trkpt>
      <trkpt lat="49.59203" lon="4.94183">
        <ele>223.16</ele>
        <time>2018-10-14T12:59:29Z</time>
      </trkpt>
      <trkpt lat="49.59205" lon="4.94185">
        <ele>223.16</ele>
        <time>2018-10-14T12:59:31Z</time>
      </trkpt>
      <trkpt lat="49.59211" lon="4.94197">
        <ele>222.68</ele>
        <time>2018-10-14T12:59:39Z</time>
      </trkpt>
      <trkpt lat="49.59222" lon="4.94218">
        <ele>222.2</ele>
        <time>2018-10-14T12:59:55Z</time>
      </trkpt>
      <trkpt lat="49.59232" lon="4.94247">
        <ele>221.72</ele>
        <time>2018-10-14T13:00:12Z</time>
      </trkpt>
      <trkpt lat="49.59239" lon="4.94276">
        <ele>222.2</ele>
        <time>2018-10-14T13:00:29Z</time>
      </trkpt>
      <trkpt lat="49.59244" lon="4.94305">
        <ele>221.72</ele>
        <time>2018-10-14T13:00:45Z</time>
      </trkpt>
      <trkpt lat="49.59247" lon="4.94336">
        <ele>219.32</ele>
        <time>2018-10-14T13:01:01Z</time>
      </trkpt>
      <trkpt lat="49.59252" lon="4.94372">
        <ele>218.36</ele>
        <time>2018-10-14T13:01:22Z</time>
      </trkpt>
      <trkpt lat="49.59255" lon="4.94401">
        <ele>216.91</ele>
        <time>2018-10-14T13:01:38Z</time>
      </trkpt>
      <trkpt lat="49.59257" lon="4.94431">
        <ele>219.32</ele>
        <time>2018-10-14T13:01:55Z</time>
      </trkpt>
      <trkpt lat="49.59261" lon="4.94455">
        <ele>218.36</ele>
        <time>2018-10-14T13:02:09Z</time>
      </trkpt>
      <trkpt lat="49.59262" lon="4.94483">
        <ele>216.91</ele>
        <time>2018-10-14T13:02:25Z</time>
      </trkpt>
      <trkpt lat="49.59263" lon="4.94515">
        <ele>218.36</ele>
        <time>2018-10-14T13:02:43Z</time>
      </trkpt>
      <trkpt lat="49.59263" lon="4.94544">
        <ele>217.4</ele>
        <time>2018-10-14T13:02:59Z</time>
      </trkpt>
      <trkpt lat="49.59263" lon="4.94578">
        <ele>216.91</ele>
        <time>2018-10-14T13:03:19Z</time>
      </trkpt>
      <trkpt lat="49.59262" lon="4.94609">
        <ele>215.47</ele>
        <time>2018-10-14T13:03:36Z</time>
      </trkpt>
      <trkpt lat="49.59262" lon="4.94651">
        <ele>215.95</ele>
        <time>2018-10-14T13:03:58Z</time>
      </trkpt>
      <trkpt lat="49.59262" lon="4.94654">
        <ele>215.47</ele>
        <time>2018-10-14T13:04:00Z</time>
      </trkpt>
      <trkpt lat="49.59262" lon="4.94662">
        <ele>215.95</ele>
        <time>2018-10-14T13:04:04Z</time>
      </trkpt>
      <trkpt lat="49.59264" lon="4.94695">
        <ele>214.99</ele>
        <time>2018-10-14T13:04:23Z</time>
      </trkpt>
      <trkpt lat="49.59265" lon="4.94724">
        <ele>214.51</ele>
        <time>2018-10-14T13:04:39Z</time>
      </trkpt>
      <trkpt lat="49.59266" lon="4.94758">
        <ele>214.51</ele>
        <time>2018-10-14T13:04:58Z</time>
      </trkpt>
      <trkpt lat="49.59268" lon="4.94787">
        <ele>213.55</ele>
        <time>2018-10-14T13:05:14Z</time>
      </trkpt>
      <trkpt lat="49.5927" lon="4.94814">
        <ele>212.11</ele>
        <time>2018-10-14T13:05:29Z</time>
      </trkpt>
      <trkpt lat="49.59273" lon="4.94844">
        <ele>213.07</ele>
        <time>2018-10-14T13:05:47Z</time>
      </trkpt>
      <trkpt lat="49.59276" lon="4.94875">
        <ele>211.15</ele>
        <time>2018-10-14T13:06:04Z</time>
      </trkpt>
      <trkpt lat="49.59279" lon="4.94907">
        <ele>211.63</ele>
        <time>2018-10-14T13:06:22Z</time>
      </trkpt>
      <trkpt lat="49.59283" lon="4.94942">
        <ele>210.19</ele>
        <time>2018-10-14T13:06:42Z</time>
      </trkpt>
      <trkpt lat="49.59286" lon="4.94977">
        <ele>209.7</ele>
        <time>2018-10-14T13:07:02Z</time>
      </trkpt>
      <trkpt lat="49.59286" lon="4.94979">
        <ele>209.7</ele>
        <time>2018-10-14T13:07:03Z</time>
      </trkpt>
      <trkpt lat="49.5929" lon="4.9501">
        <ele>211.15</ele>
        <time>2018-10-14T13:07:21Z</time>
      </trkpt>
      <trkpt lat="49.59294" lon="4.95044">
        <ele>209.7</ele>
        <time>2018-10-14T13:07:40Z</time>
      </trkpt>
      <trkpt lat="49.59297" lon="4.95079">
        <ele>209.22</ele>
        <time>2018-10-14T13:08:01Z</time>
      </trkpt>
      <trkpt lat="49.59302" lon="4.9511">
        <ele>207.3</ele>
        <time>2018-10-14T13:08:18Z</time>
      </trkpt>
      <trkpt lat="49.59305" lon="4.95139">
        <ele>206.34</ele>
        <time>2018-10-14T13:08:35Z</time>
      </trkpt>
      <trkpt lat="49.59307" lon="4.95156">
        <ele>205.38</ele>
        <time>2018-10-14T13:08:45Z</time>
      </trkpt>
      <trkpt lat="49.5931" lon="4.95168">
        <ele>204.42</ele>
        <time>2018-10-14T13:08:52Z</time>
      </trkpt>
      <trkpt lat="49.59317" lon="4.95198">
        <ele>206.34</ele>
        <time>2018-10-14T13:09:10Z</time>
      </trkpt>
      <trkpt lat="49.59325" lon="4.95226">
        <ele>205.38</ele>
        <time>2018-10-14T13:09:28Z</time>
      </trkpt>
      <trkpt lat="49.59334" lon="4.95251">
        <ele>204.42</ele>
        <time>2018-10-14T13:09:43Z</time>
      </trkpt>
      <trkpt lat="49.59342" lon="4.95277">
        <ele>205.38</ele>
        <time>2018-10-14T13:10:00Z</time>
      </trkpt>
      <trkpt lat="49.59346" lon="4.95288">
        <ele>205.86</ele>
        <time>2018-10-14T13:10:16Z</time>
      </trkpt>
      <trkpt lat="49.59346" lon="4.95288">
        <ele>205.38</ele>
        <time>2018-10-14T13:10:21Z</time>
      </trkpt>
      <trkpt lat="49.59349" lon="4.95298">
        <ele>204.9</ele>
        <time>2018-10-14T13:10:27Z</time>
      </trkpt>
      <trkpt lat="49.59359" lon="4.95329">
        <ele>205.38</ele>
        <time>2018-10-14T13:10:46Z</time>
      </trkpt>
      <trkpt lat="49.59368" lon="4.95362">
        <ele>203.94</ele>
        <time>2018-10-14T13:11:06Z</time>
      </trkpt>
      <trkpt lat="49.59377" lon="4.95393">
        <ele>206.34</ele>
        <time>2018-10-14T13:11:24Z</time>
      </trkpt>
      <trkpt lat="49.59387" lon="4.95423">
        <ele>206.34</ele>
        <time>2018-10-14T13:11:43Z</time>
      </trkpt>
      <trkpt lat="49.594" lon="4.9545">
        <ele>202.98</ele>
        <time>2018-10-14T13:12:02Z</time>
      </trkpt>
      <trkpt lat="49.59414" lon="4.95469">
        <ele>201.53</ele>
        <time>2018-10-14T13:12:18Z</time>
      </trkpt>
      <trkpt lat="49.59415" lon="4.95471">
        <ele>203.46</ele>
        <time>2018-10-14T13:12:29Z</time>
      </trkpt>
      <trkpt lat="49.59423" lon="4.9548">
        <ele>203.94</ele>
        <time>2018-10-14T13:12:42Z</time>
      </trkpt>
      <trkpt lat="49.59439" lon="4.95493">
        <ele>202.98</ele>
        <time>2018-10-14T13:12:58Z</time>
      </trkpt>
      <trkpt lat="49.59459" lon="4.95503">
        <ele>201.53</ele>
        <time>2018-10-14T13:13:15Z</time>
      </trkpt>
      <trkpt lat="49.59479" lon="4.95504">
        <ele>199.61</ele>
        <time>2018-10-14T13:13:33Z</time>
      </trkpt>
      <trkpt lat="49.595" lon="4.95503">
        <ele>197.69</ele>
        <time>2018-10-14T13:13:51Z</time>
      </trkpt>
      <trkpt lat="49.59522" lon="4.95496">
        <ele>196.73</ele>
        <time>2018-10-14T13:14:09Z</time>
      </trkpt>
      <trkpt lat="49.59544" lon="4.95492">
        <ele>195.28</ele>
        <time>2018-10-14T13:14:28Z</time>
      </trkpt>
      <trkpt lat="49.59566" lon="4.95486">
        <ele>195.28</ele>
        <time>2018-10-14T13:14:47Z</time>
      </trkpt>
      <trkpt lat="49.5959" lon="4.95485">
        <ele>195.28</ele>
        <time>2018-10-14T13:15:07Z</time>
      </trkpt>
      <trkpt lat="49.59614" lon="4.95484">
        <ele>194.8</ele>
        <time>2018-10-14T13:15:28Z</time>
      </trkpt>
      <trkpt lat="49.59628" lon="4.95487">
        <ele>193.84</ele>
        <time>2018-10-14T13:15:41Z</time>
      </trkpt>
      <trkpt lat="49.5965" lon="4.95488">
        <ele>194.8</ele>
        <time>2018-10-14T13:15:59Z</time>
      </trkpt>
      <trkpt lat="49.59671" lon="4.9549">
        <ele>196.25</ele>
        <time>2018-10-14T13:16:18Z</time>
      </trkpt>
      <trkpt lat="49.59695" lon="4.95494">
        <ele>194.32</ele>
        <time>2018-10-14T13:16:38Z</time>
      </trkpt>
      <trkpt lat="49.59717" lon="4.95496">
        <ele>194.8</ele>
        <time>2018-10-14T13:16:56Z</time>
      </trkpt>
      <trkpt lat="49.59739" lon="4.95497">
        <ele>194.8</ele>
        <time>2018-10-14T13:17:14Z</time>
      </trkpt>
      <trkpt lat="49.59759" lon="4.95496">
        <ele>194.8</ele>
        <time>2018-10-14T13:17:31Z</time>
      </trkpt>
      <trkpt lat="49.59782" lon="4.95496">
        <ele>195.28</ele>
        <time>2018-10-14T13:17:52Z</time>
      </trkpt>
      <trkpt lat="49.59801" lon="4.95494">
        <ele>196.25</ele>
        <time>2018-10-14T13:18:10Z</time>
      </trkpt>
      <trkpt lat="49.59823" lon="4.95488">
        <ele>194.8</ele>
        <time>2018-10-14T13:18:29Z</time>
      </trkpt>
      <trkpt lat="49.59834" lon="4.95487">
        <ele>192.4</ele>
        <time>2018-10-14T13:18:38Z</time>
      </trkpt>
      <trkpt lat="49.59842" lon="4.95486">
        <ele>191.44</ele>
        <time>2018-10-14T13:18:44Z</time>
      </trkpt>
      <trkpt lat="49.59859" lon="4.95475">
        <ele>190</ele>
        <time>2018-10-14T13:19:02Z</time>
      </trkpt>
      <trkpt lat="49.59863" lon="4.95476">
        <ele>190</ele>
        <time>2018-10-14T13:19:06Z</time>
      </trkpt>
      <trkpt lat="49.59867" lon="4.95478">
        <ele>190.48</ele>
        <time>2018-10-14T13:19:10Z</time>
      </trkpt>
      <trkpt lat="49.59884" lon="4.95495">
        <ele>191.92</ele>
        <time>2018-10-14T13:19:28Z</time>
      </trkpt>
      <trkpt lat="49.59893" lon="4.9551">
        <ele>191.92</ele>
        <time>2018-10-14T13:19:40Z</time>
      </trkpt>
      <trkpt lat="49.59904" lon="4.95532">
        <ele>192.88</ele>
        <time>2018-10-14T13:19:57Z</time>
      </trkpt>
      <trkpt lat="49.59917" lon="4.95551">
        <ele>190.48</ele>
        <time>2018-10-14T13:20:13Z</time>
      </trkpt>
      <trkpt lat="49.59928" lon="4.95567">
        <ele>189.52</ele>
        <time>2018-10-14T13:20:27Z</time>
      </trkpt>
      <trkpt lat="49.59929" lon="4.95568">
        <ele>189.04</ele>
        <time>2018-10-14T13:20:28Z</time>
      </trkpt>
      <trkpt lat="49.59939" lon="4.95579">
        <ele>186.63</ele>
        <time>2018-10-14T13:20:42Z</time>
      </trkpt>
      <trkpt lat="49.59948" lon="4.95593">
        <ele>184.23</ele>
        <time>2018-10-14T13:20:54Z</time>
      </trkpt>
      <trkpt lat="49.59958" lon="4.95606">
        <ele>179.9</ele>
        <time>2018-10-14T13:21:06Z</time>
      </trkpt>
      <trkpt lat="49.59972" lon="4.95621">
        <ele>180.38</ele>
        <time>2018-10-14T13:21:20Z</time>
      </trkpt>
      <trkpt lat="49.59984" lon="4.95644">
        <ele>183.27</ele>
        <time>2018-10-14T13:21:35Z</time>
      </trkpt>
      <trkpt lat="49.59996" lon="4.95668">
        <ele>183.75</ele>
        <time>2018-10-14T13:21:52Z</time>
      </trkpt>
      <trkpt lat="49.59996" lon="4.95669">
        <ele>183.27</ele>
        <time>2018-10-14T13:21:53Z</time>
      </trkpt>
      <trkpt lat="49.6" lon="4.95677">
        <ele>182.31</ele>
        <time>2018-10-14T13:22:05Z</time>
      </trkpt>
      <trkpt lat="49.59999" lon="4.95678">
        <ele>182.79</ele>
        <time>2018-10-14T13:22:09Z</time>
      </trkpt>
      <trkpt lat="49.59999" lon="4.95681">
        <ele>182.79</ele>
        <time>2018-10-14T13:22:11Z</time>
      </trkpt>
      <trkpt lat="49.6" lon="4.95686">
        <ele>182.79</ele>
        <time>2018-10-14T13:22:14Z</time>
      </trkpt>
      <trkpt lat="49.60004" lon="4.957">
        <ele>184.23</ele>
        <time>2018-10-14T13:22:23Z</time>
      </trkpt>
      <trkpt lat="49.60006" lon="4.95707">
        <ele>184.71</ele>
        <time>2018-10-14T13:22:27Z</time>
      </trkpt>
      <trkpt lat="49.60001" lon="4.95712">
        <ele>183.27</ele>
        <time>2018-10-14T13:22:33Z</time>
      </trkpt>
      <trkpt lat="49.59991" lon="4.95711">
        <ele>184.71</ele>
        <time>2018-10-14T13:22:46Z</time>
      </trkpt>
      <trkpt lat="49.59989" lon="4.9571">
        <ele>185.19</ele>
        <time>2018-10-14T13:22:48Z</time>
      </trkpt>
      <trkpt lat="49.59972" lon="4.95708">
        <ele>187.59</ele>
        <time>2018-10-14T13:23:03Z</time>
      </trkpt>
      <trkpt lat="49.59967" lon="4.95708">
        <ele>190</ele>
        <time>2018-10-14T13:23:18Z</time>
      </trkpt>
      <trkpt lat="49.59967" lon="4.95717">
        <ele>192.88</ele>
        <time>2018-10-14T13:23:34Z</time>
      </trkpt>
      <trkpt lat="49.5997" lon="4.95732">
        <ele>195.28</ele>
        <time>2018-10-14T13:23:41Z</time>
      </trkpt>
      <trkpt lat="49.59966" lon="4.95762">
        <ele>199.13</ele>
        <time>2018-10-14T13:23:59Z</time>
      </trkpt>
      <trkpt lat="49.59962" lon="4.95786">
        <ele>201.05</ele>
        <time>2018-10-14T13:24:13Z</time>
      </trkpt>
      <trkpt lat="49.59957" lon="4.95811">
        <ele>204.9</ele>
        <time>2018-10-14T13:24:28Z</time>
      </trkpt>
      <trkpt lat="49.59954" lon="4.95825">
        <ele>205.38</ele>
        <time>2018-10-14T13:24:36Z</time>
      </trkpt>
      <trkpt lat="49.59953" lon="4.95839">
        <ele>206.34</ele>
        <time>2018-10-14T13:24:45Z</time>
      </trkpt>
      <trkpt lat="49.59949" lon="4.95863">
        <ele>207.3</ele>
        <time>2018-10-14T13:25:00Z</time>
      </trkpt>
      <trkpt lat="49.59946" lon="4.95868">
        <ele>206.82</ele>
        <time>2018-10-14T13:25:04Z</time>
      </trkpt>
      <trkpt lat="49.59944" lon="4.95872">
        <ele>206.82</ele>
        <time>2018-10-14T13:25:07Z</time>
      </trkpt>
      <trkpt lat="49.59929" lon="4.95888">
        <ele>207.78</ele>
        <time>2018-10-14T13:25:23Z</time>
      </trkpt>
      <trkpt lat="49.59924" lon="4.95894">
        <ele>207.78</ele>
        <time>2018-10-14T13:25:29Z</time>
      </trkpt>
      <trkpt lat="49.59919" lon="4.95903">
        <ele>207.3</ele>
        <time>2018-10-14T13:25:36Z</time>
      </trkpt>
      <trkpt lat="49.59918" lon="4.95906">
        <ele>206.82</ele>
        <time>2018-10-14T13:25:38Z</time>
      </trkpt>
      <trkpt lat="49.59913" lon="4.95917">
        <ele>205.86</ele>
        <time>2018-10-14T13:25:45Z</time>
      </trkpt>
      <trkpt lat="49.599" lon="4.95935">
        <ele>203.94</ele>
        <time>2018-10-14T13:26:01Z</time>
      </trkpt>
      <trkpt lat="49.59882" lon="4.95958">
        <ele>203.94</ele>
        <time>2018-10-14T13:26:21Z</time>
      </trkpt>
      <trkpt lat="49.59877" lon="4.95965">
        <ele>203.94</ele>
        <time>2018-10-14T13:26:27Z</time>
      </trkpt>
      <trkpt lat="49.59862" lon="4.95983">
        <ele>203.46</ele>
        <time>2018-10-14T13:26:43Z</time>
      </trkpt>
      <trkpt lat="49.59847" lon="4.96006">
        <ele>202.98</ele>
        <time>2018-10-14T13:27:01Z</time>
      </trkpt>
      <trkpt lat="49.5984" lon="4.96018">
        <ele>203.94</ele>
        <time>2018-10-14T13:27:11Z</time>
      </trkpt>
      <trkpt lat="49.59835" lon="4.9603">
        <ele>202.98</ele>
        <time>2018-10-14T13:27:19Z</time>
      </trkpt>
      <trkpt lat="49.59834" lon="4.96035">
        <ele>202.98</ele>
        <time>2018-10-14T13:27:22Z</time>
      </trkpt>
      <trkpt lat="49.5983" lon="4.96041">
        <ele>202.01</ele>
        <time>2018-10-14T13:27:27Z</time>
      </trkpt>
      <trkpt lat="49.59826" lon="4.96051">
        <ele>200.57</ele>
        <time>2018-10-14T13:27:33Z</time>
      </trkpt>
      <trkpt lat="49.59816" lon="4.96076">
        <ele>199.61</ele>
        <time>2018-10-14T13:27:50Z</time>
      </trkpt>
      <trkpt lat="49.59808" lon="4.96104">
        <ele>199.61</ele>
        <time>2018-10-14T13:28:07Z</time>
      </trkpt>
      <trkpt lat="49.59801" lon="4.96128">
        <ele>200.57</ele>
        <time>2018-10-14T13:28:22Z</time>
      </trkpt>
      <trkpt lat="49.59798" lon="4.96142">
        <ele>201.05</ele>
        <time>2018-10-14T13:28:29Z</time>
      </trkpt>
      <trkpt lat="49.59795" lon="4.96157">
        <ele>201.53</ele>
        <time>2018-10-14T13:28:39Z</time>
      </trkpt>
      <trkpt lat="49.5979" lon="4.96185">
        <ele>200.57</ele>
        <time>2018-10-14T13:28:55Z</time>
      </trkpt>
      <trkpt lat="49.59784" lon="4.96216">
        <ele>200.09</ele>
        <time>2018-10-14T13:29:13Z</time>
      </trkpt>
      <trkpt lat="49.59782" lon="4.96222">
        <ele>200.57</ele>
        <time>2018-10-14T13:29:17Z</time>
      </trkpt>
      <trkpt lat="49.59772" lon="4.96249">
        <ele>201.05</ele>
        <time>2018-10-14T13:29:35Z</time>
      </trkpt>
      <trkpt lat="49.59766" lon="4.96266">
        <ele>200.09</ele>
        <time>2018-10-14T13:29:46Z</time>
      </trkpt>
      <trkpt lat="49.59757" lon="4.96291">
        <ele>201.05</ele>
        <time>2018-10-14T13:30:02Z</time>
      </trkpt>
      <trkpt lat="49.59757" lon="4.96293">
        <ele>201.05</ele>
        <time>2018-10-14T13:30:03Z</time>
      </trkpt>
      <trkpt lat="49.59749" lon="4.96327">
        <ele>200.09</ele>
        <time>2018-10-14T13:30:23Z</time>
      </trkpt>
      <trkpt lat="49.59744" lon="4.96353">
        <ele>202.01</ele>
        <time>2018-10-14T13:30:39Z</time>
      </trkpt>
      <trkpt lat="49.5974" lon="4.96378">
        <ele>202.01</ele>
        <time>2018-10-14T13:30:54Z</time>
      </trkpt>
      <trkpt lat="49.59736" lon="4.96402">
        <ele>203.46</ele>
        <time>2018-10-14T13:31:08Z</time>
      </trkpt>
      <trkpt lat="49.59731" lon="4.96432">
        <ele>204.42</ele>
        <time>2018-10-14T13:31:26Z</time>
      </trkpt>
      <trkpt lat="49.59727" lon="4.96457">
        <ele>205.86</ele>
        <time>2018-10-14T13:31:41Z</time>
      </trkpt>
      <trkpt lat="49.59723" lon="4.96488">
        <ele>208.74</ele>
        <time>2018-10-14T13:31:58Z</time>
      </trkpt>
      <trkpt lat="49.59718" lon="4.96514">
        <ele>210.19</ele>
        <time>2018-10-14T13:32:15Z</time>
      </trkpt>
      <trkpt lat="49.59717" lon="4.96518">
        <ele>210.19</ele>
        <time>2018-10-14T13:32:18Z</time>
      </trkpt>
      <trkpt lat="49.59712" lon="4.96539">
        <ele>210.19</ele>
        <time>2018-10-14T13:32:31Z</time>
      </trkpt>
      <trkpt lat="49.59708" lon="4.96557">
        <ele>213.07</ele>
        <time>2018-10-14T13:32:45Z</time>
      </trkpt>
      <trkpt lat="49.59705" lon="4.96578">
        <ele>215.47</ele>
        <time>2018-10-14T13:32:58Z</time>
      </trkpt>
      <trkpt lat="49.59701" lon="4.966">
        <ele>217.4</ele>
        <time>2018-10-14T13:33:12Z</time>
      </trkpt>
      <trkpt lat="49.59698" lon="4.96618">
        <ele>220.28</ele>
        <time>2018-10-14T13:33:25Z</time>
      </trkpt>
      <trkpt lat="49.59695" lon="4.96629">
        <ele>220.28</ele>
        <time>2018-10-14T13:33:33Z</time>
      </trkpt>
      <trkpt lat="49.59689" lon="4.9665">
        <ele>222.2</ele>
        <time>2018-10-14T13:33:47Z</time>
      </trkpt>
      <trkpt lat="49.59685" lon="4.9667">
        <ele>225.09</ele>
        <time>2018-10-14T13:34:00Z</time>
      </trkpt>
      <trkpt lat="49.5968" lon="4.96685">
        <ele>227.97</ele>
        <time>2018-10-14T13:34:11Z</time>
      </trkpt>
      <trkpt lat="49.59679" lon="4.96689">
        <ele>229.89</ele>
        <time>2018-10-14T13:34:15Z</time>
      </trkpt>
      <trkpt lat="49.59674" lon="4.96708">
        <ele>233.26</ele>
        <time>2018-10-14T13:34:30Z</time>
      </trkpt>
      <trkpt lat="49.59668" lon="4.9672">
        <ele>235.66</ele>
        <time>2018-10-14T13:34:41Z</time>
      </trkpt>
      <trkpt lat="49.59666" lon="4.96728">
        <ele>236.62</ele>
        <time>2018-10-14T13:34:47Z</time>
      </trkpt>
      <trkpt lat="49.59663" lon="4.96738">
        <ele>237.1</ele>
        <time>2018-10-14T13:34:53Z</time>
      </trkpt>
      <trkpt lat="49.59658" lon="4.96755">
        <ele>239.99</ele>
        <time>2018-10-14T13:35:05Z</time>
      </trkpt>
      <trkpt lat="49.59651" lon="4.96771">
        <ele>239.51</ele>
        <time>2018-10-14T13:35:18Z</time>
      </trkpt>
      <trkpt lat="49.5965" lon="4.96779">
        <ele>239.99</ele>
        <time>2018-10-14T13:35:24Z</time>
      </trkpt>
      <trkpt lat="49.59647" lon="4.96789">
        <ele>240.47</ele>
        <time>2018-10-14T13:35:31Z</time>
      </trkpt>
      <trkpt lat="49.59641" lon="4.96812">
        <ele>241.91</ele>
        <time>2018-10-14T13:35:45Z</time>
      </trkpt>
      <trkpt lat="49.59635" lon="4.96831">
        <ele>241.91</ele>
        <time>2018-10-14T13:35:59Z</time>
      </trkpt>
      <trkpt lat="49.5963" lon="4.96849">
        <ele>244.31</ele>
        <time>2018-10-14T13:36:12Z</time>
      </trkpt>
      <trkpt lat="49.59627" lon="4.96861">
        <ele>246.72</ele>
        <time>2018-10-14T13:36:23Z</time>
      </trkpt>
      <trkpt lat="49.59624" lon="4.9686">
        <ele>248.16</ele>
        <time>2018-10-14T13:36:41Z</time>
      </trkpt>
      <trkpt lat="49.59622" lon="4.96871">
        <ele>248.16</ele>
        <time>2018-10-14T13:36:54Z</time>
      </trkpt>
      <trkpt lat="49.59621" lon="4.96886">
        <ele>250.08</ele>
        <time>2018-10-14T13:37:07Z</time>
      </trkpt>
      <trkpt lat="49.59619" lon="4.96896">
        <ele>250.56</ele>
        <time>2018-10-14T13:37:15Z</time>
      </trkpt>
      <trkpt lat="49.59616" lon="4.96911">
        <ele>253.93</ele>
        <time>2018-10-14T13:37:25Z</time>
      </trkpt>
      <trkpt lat="49.59615" lon="4.96923">
        <ele>255.37</ele>
        <time>2018-10-14T13:37:36Z</time>
      </trkpt>
      <trkpt lat="49.59611" lon="4.9694">
        <ele>257.29</ele>
        <time>2018-10-14T13:37:49Z</time>
      </trkpt>
      <trkpt lat="49.59607" lon="4.96959">
        <ele>261.14</ele>
        <time>2018-10-14T13:38:04Z</time>
      </trkpt>
      <trkpt lat="49.59603" lon="4.96972">
        <ele>264.5</ele>
        <time>2018-10-14T13:38:16Z</time>
      </trkpt>
      <trkpt lat="49.596" lon="4.96987">
        <ele>267.38</ele>
        <time>2018-10-14T13:38:28Z</time>
      </trkpt>
      <trkpt lat="49.59595" lon="4.97004">
        <ele>270.75</ele>
        <time>2018-10-14T13:38:42Z</time>
      </trkpt>
      <trkpt lat="49.59593" lon="4.97015">
        <ele>271.23</ele>
        <time>2018-10-14T13:38:48Z</time>
      </trkpt>
      <trkpt lat="49.5959" lon="4.97036">
        <ele>268.83</ele>
        <time>2018-10-14T13:39:01Z</time>
      </trkpt>
      <trkpt lat="49.59591" lon="4.97042">
        <ele>268.83</ele>
        <time>2018-10-14T13:39:16Z</time>
      </trkpt>
      <trkpt lat="49.59591" lon="4.97043">
        <ele>268.35</ele>
        <time>2018-10-14T13:39:36Z</time>
      </trkpt>
      <trkpt lat="49.59591" lon="4.97042">
        <ele>267.38</ele>
        <time>2018-10-14T13:40:09Z</time>
      </trkpt>
      <trkpt lat="49.59591" lon="4.97042">
        <ele>269.79</ele>
        <time>2018-10-14T13:40:39Z</time>
      </trkpt>
      <trkpt lat="49.59591" lon="4.97043">
        <ele>271.23</ele>
        <time>2018-10-14T13:40:59Z</time>
      </trkpt>
      <trkpt lat="49.59589" lon="4.97043">
        <ele>272.19</ele>
        <time>2018-10-14T13:41:29Z</time>
      </trkpt>
      <trkpt lat="49.5959" lon="4.97041">
        <ele>272.67</ele>
        <time>2018-10-14T13:41:56Z</time>
      </trkpt>
      <trkpt lat="49.5959" lon="4.9704">
        <ele>272.67</ele>
        <time>2018-10-14T13:42:25Z</time>
      </trkpt>
      <trkpt lat="49.5959" lon="4.9704">
        <ele>272.19</ele>
        <time>2018-10-14T13:42:52Z</time>
      </trkpt>
      <trkpt lat="49.5959" lon="4.9704">
        <ele>272.67</ele>
        <time>2018-10-14T13:43:16Z</time>
      </trkpt>
      <trkpt lat="49.59591" lon="4.9704">
        <ele>271.71</ele>
        <time>2018-10-14T13:43:44Z</time>
      </trkpt>
      <trkpt lat="49.59592" lon="4.9704">
        <ele>272.19</ele>
        <time>2018-10-14T13:44:10Z</time>
      </trkpt>
      <trkpt lat="49.59593" lon="4.97039">
        <ele>272.19</ele>
        <time>2018-10-14T13:44:46Z</time>
      </trkpt>
      <trkpt lat="49.59593" lon="4.97038">
        <ele>271.71</ele>
        <time>2018-10-14T13:45:17Z</time>
      </trkpt>
      <trkpt lat="49.59593" lon="4.97038">
        <ele>272.19</ele>
        <time>2018-10-14T13:45:48Z</time>
      </trkpt>
      <trkpt lat="49.59592" lon="4.97038">
        <ele>271.71</ele>
        <time>2018-10-14T13:46:13Z</time>
      </trkpt>
      <trkpt lat="49.59592" lon="4.97038">
        <ele>271.71</ele>
        <time>2018-10-14T13:46:41Z</time>
      </trkpt>
      <trkpt lat="49.59592" lon="4.9704">
        <ele>272.67</ele>
        <time>2018-10-14T13:47:11Z</time>
      </trkpt>
      <trkpt lat="49.59593" lon="4.97039">
        <ele>272.67</ele>
        <time>2018-10-14T13:47:45Z</time>
      </trkpt>
      <trkpt lat="49.59594" lon="4.97038">
        <ele>272.19</ele>
        <time>2018-10-14T13:48:18Z</time>
      </trkpt>
      <trkpt lat="49.59594" lon="4.97039">
        <ele>271.23</ele>
        <time>2018-10-14T13:48:46Z</time>
      </trkpt>
      <trkpt lat="49.59594" lon="4.97038">
        <ele>271.23</ele>
        <time>2018-10-14T13:49:12Z</time>
      </trkpt>
      <trkpt lat="49.59594" lon="4.97036">
        <ele>271.23</ele>
        <time>2018-10-14T13:49:42Z</time>
      </trkpt>
      <trkpt lat="49.59595" lon="4.97037">
        <ele>270.75</ele>
        <time>2018-10-14T13:50:16Z</time>
      </trkpt>
      <trkpt lat="49.59594" lon="4.97039">
        <ele>271.71</ele>
        <time>2018-10-14T13:50:46Z</time>
      </trkpt>
      <trkpt lat="49.59594" lon="4.97039">
        <ele>272.19</ele>
        <time>2018-10-14T13:51:15Z</time>
      </trkpt>
      <trkpt lat="49.59594" lon="4.97038">
        <ele>272.67</ele>
        <time>2018-10-14T13:51:49Z</time>
      </trkpt>
      <trkpt lat="49.59593" lon="4.97038">
        <ele>271.23</ele>
        <time>2018-10-14T13:52:22Z</time>
      </trkpt>
      <trkpt lat="49.59593" lon="4.97037">
        <ele>269.79</ele>
        <time>2018-10-14T13:52:46Z</time>
      </trkpt>
      <trkpt lat="49.59594" lon="4.97038">
        <ele>270.27</ele>
        <time>2018-10-14T13:53:17Z</time>
      </trkpt>
      <trkpt lat="49.59593" lon="4.97036">
        <ele>268.35</ele>
        <time>2018-10-14T13:53:52Z</time>
      </trkpt>
      <trkpt lat="49.59594" lon="4.97037">
        <ele>268.35</ele>
        <time>2018-10-14T13:54:13Z</time>
      </trkpt>
      <trkpt lat="49.59594" lon="4.9704">
        <ele>268.35</ele>
        <time>2018-10-14T13:54:43Z</time>
      </trkpt>
      <trkpt lat="49.59594" lon="4.97043">
        <ele>268.35</ele>
        <time>2018-10-14T13:55:05Z</time>
      </trkpt>
      <trkpt lat="49.59593" lon="4.97049">
        <ele>267.86</ele>
        <time>2018-10-14T13:55:34Z</time>
      </trkpt>
      <trkpt lat="49.59592" lon="4.9705">
        <ele>267.38</ele>
        <time>2018-10-14T13:56:02Z</time>
      </trkpt>
      <trkpt lat="49.59593" lon="4.97051">
        <ele>267.86</ele>
        <time>2018-10-14T13:56:21Z</time>
      </trkpt>
      <trkpt lat="49.59593" lon="4.97053">
        <ele>268.83</ele>
        <time>2018-10-14T13:56:46Z</time>
      </trkpt>
      <trkpt lat="49.59593" lon="4.97051">
        <ele>268.83</ele>
        <time>2018-10-14T13:57:08Z</time>
      </trkpt>
      <trkpt lat="49.5959" lon="4.97057">
        <ele>268.35</ele>
        <time>2018-10-14T13:57:22Z</time>
      </trkpt>
      <trkpt lat="49.59583" lon="4.97066">
        <ele>269.31</ele>
        <time>2018-10-14T13:57:34Z</time>
      </trkpt>
      <trkpt lat="49.59582" lon="4.97073">
        <ele>270.75</ele>
        <time>2018-10-14T13:57:50Z</time>
      </trkpt>
      <trkpt lat="49.59578" lon="4.97096">
        <ele>272.19</ele>
        <time>2018-10-14T13:58:07Z</time>
      </trkpt>
      <trkpt lat="49.59577" lon="4.97104">
        <ele>271.71</ele>
        <time>2018-10-14T13:58:12Z</time>
      </trkpt>
      <trkpt lat="49.59571" lon="4.97131">
        <ele>271.71</ele>
        <time>2018-10-14T13:58:29Z</time>
      </trkpt>
      <trkpt lat="49.59561" lon="4.97158">
        <ele>275.07</ele>
        <time>2018-10-14T13:58:47Z</time>
      </trkpt>
      <trkpt lat="49.5956" lon="4.97164">
        <ele>276.04</ele>
        <time>2018-10-14T13:58:51Z</time>
      </trkpt>
      <trkpt lat="49.59549" lon="4.97187">
        <ele>277.96</ele>
        <time>2018-10-14T13:59:08Z</time>
      </trkpt>
      <trkpt lat="49.59536" lon="4.97205">
        <ele>278.92</ele>
        <time>2018-10-14T13:59:24Z</time>
      </trkpt>
      <trkpt lat="49.59529" lon="4.97214">
        <ele>278.92</ele>
        <time>2018-10-14T13:59:33Z</time>
      </trkpt>
      <trkpt lat="49.59524" lon="4.97222">
        <ele>279.88</ele>
        <time>2018-10-14T13:59:48Z</time>
      </trkpt>
      <trkpt lat="49.59506" lon="4.97245">
        <ele>280.84</ele>
        <time>2018-10-14T14:00:09Z</time>
      </trkpt>
      <trkpt lat="49.59493" lon="4.97266">
        <ele>281.32</ele>
        <time>2018-10-14T14:00:26Z</time>
      </trkpt>
      <trkpt lat="49.5948" lon="4.97289">
        <ele>283.25</ele>
        <time>2018-10-14T14:00:45Z</time>
      </trkpt>
      <trkpt lat="49.59466" lon="4.97313">
        <ele>283.73</ele>
        <time>2018-10-14T14:01:05Z</time>
      </trkpt>
      <trkpt lat="49.59454" lon="4.97332">
        <ele>283.73</ele>
        <time>2018-10-14T14:01:21Z</time>
      </trkpt>
      <trkpt lat="49.59442" lon="4.97357">
        <ele>288.05</ele>
        <time>2018-10-14T14:01:39Z</time>
      </trkpt>
      <trkpt lat="49.5943" lon="4.97382">
        <ele>291.42</ele>
        <time>2018-10-14T14:01:58Z</time>
      </trkpt>
      <trkpt lat="49.59416" lon="4.97409">
        <ele>293.82</ele>
        <time>2018-10-14T14:02:19Z</time>
      </trkpt>
      <trkpt lat="49.5941" lon="4.97433">
        <ele>295.26</ele>
        <time>2018-10-14T14:02:36Z</time>
      </trkpt>
      <trkpt lat="49.59411" lon="4.97435">
        <ele>294.78</ele>
        <time>2018-10-14T14:02:46Z</time>
      </trkpt>
      <trkpt lat="49.59421" lon="4.97449">
        <ele>294.78</ele>
        <time>2018-10-14T14:03:00Z</time>
      </trkpt>
      <trkpt lat="49.59435" lon="4.97474">
        <ele>295.26</ele>
        <time>2018-10-14T14:03:19Z</time>
      </trkpt>
      <trkpt lat="49.59451" lon="4.97502">
        <ele>295.74</ele>
        <time>2018-10-14T14:03:42Z</time>
      </trkpt>
      <trkpt lat="49.59465" lon="4.97528">
        <ele>295.26</ele>
        <time>2018-10-14T14:04:01Z</time>
      </trkpt>
      <trkpt lat="49.59478" lon="4.97552">
        <ele>295.74</ele>
        <time>2018-10-14T14:04:19Z</time>
      </trkpt>
      <trkpt lat="49.59493" lon="4.9758">
        <ele>295.74</ele>
        <time>2018-10-14T14:04:40Z</time>
      </trkpt>
      <trkpt lat="49.59508" lon="4.97604">
        <ele>296.7</ele>
        <time>2018-10-14T14:04:59Z</time>
      </trkpt>
      <trkpt lat="49.59521" lon="4.97629">
        <ele>296.7</ele>
        <time>2018-10-14T14:05:18Z</time>
      </trkpt>
      <trkpt lat="49.59533" lon="4.97651">
        <ele>296.22</ele>
        <time>2018-10-14T14:05:35Z</time>
      </trkpt>
      <trkpt lat="49.59547" lon="4.97677">
        <ele>296.22</ele>
        <time>2018-10-14T14:05:54Z</time>
      </trkpt>
      <trkpt lat="49.59558" lon="4.97699">
        <ele>296.22</ele>
        <time>2018-10-14T14:06:10Z</time>
      </trkpt>
      <trkpt lat="49.59573" lon="4.97722">
        <ele>295.26</ele>
        <time>2018-10-14T14:06:30Z</time>
      </trkpt>
      <trkpt lat="49.59583" lon="4.97744">
        <ele>293.82</ele>
        <time>2018-10-14T14:06:46Z</time>
      </trkpt>
      <trkpt lat="49.59584" lon="4.97746">
        <ele>293.34</ele>
        <time>2018-10-14T14:06:48Z</time>
      </trkpt>
      <trkpt lat="49.5959" lon="4.97757">
        <ele>291.42</ele>
        <time>2018-10-14T14:06:57Z</time>
      </trkpt>
      <trkpt lat="49.59594" lon="4.97769">
        <ele>290.46</ele>
        <time>2018-10-14T14:07:04Z</time>
      </trkpt>
      <trkpt lat="49.59607" lon="4.97791">
        <ele>286.61</ele>
        <time>2018-10-14T14:07:22Z</time>
      </trkpt>
      <trkpt lat="49.59616" lon="4.97812">
        <ele>283.25</ele>
        <time>2018-10-14T14:07:38Z</time>
      </trkpt>
      <trkpt lat="49.59626" lon="4.97833">
        <ele>282.77</ele>
        <time>2018-10-14T14:07:54Z</time>
      </trkpt>
      <trkpt lat="49.59634" lon="4.97851">
        <ele>280.84</ele>
        <time>2018-10-14T14:08:08Z</time>
      </trkpt>
      <trkpt lat="49.59635" lon="4.97853">
        <ele>280.84</ele>
        <time>2018-10-14T14:08:09Z</time>
      </trkpt>
      <trkpt lat="49.59644" lon="4.97867">
        <ele>279.88</ele>
        <time>2018-10-14T14:08:20Z</time>
      </trkpt>
      <trkpt lat="49.59654" lon="4.97891">
        <ele>279.88</ele>
        <time>2018-10-14T14:08:36Z</time>
      </trkpt>
      <trkpt lat="49.59657" lon="4.97897">
        <ele>280.84</ele>
        <time>2018-10-14T14:08:40Z</time>
      </trkpt>
      <trkpt lat="49.59659" lon="4.97903">
        <ele>281.32</ele>
        <time>2018-10-14T14:08:44Z</time>
      </trkpt>
      <trkpt lat="49.59664" lon="4.97913">
        <ele>282.28</ele>
        <time>2018-10-14T14:08:51Z</time>
      </trkpt>
      <trkpt lat="49.59667" lon="4.97921">
        <ele>282.28</ele>
        <time>2018-10-14T14:08:56Z</time>
      </trkpt>
      <trkpt lat="49.59676" lon="4.97943">
        <ele>280.84</ele>
        <time>2018-10-14T14:09:11Z</time>
      </trkpt>
      <trkpt lat="49.59676" lon="4.97944">
        <ele>280.84</ele>
        <time>2018-10-14T14:09:12Z</time>
      </trkpt>
      <trkpt lat="49.59691" lon="4.9797">
        <ele>281.8</ele>
        <time>2018-10-14T14:09:31Z</time>
      </trkpt>
      <trkpt lat="49.59694" lon="4.97977">
        <ele>282.28</ele>
        <time>2018-10-14T14:09:36Z</time>
      </trkpt>
      <trkpt lat="49.59697" lon="4.97982">
        <ele>281.8</ele>
        <time>2018-10-14T14:09:40Z</time>
      </trkpt>
      <trkpt lat="49.59706" lon="4.98004">
        <ele>281.8</ele>
        <time>2018-10-14T14:09:55Z</time>
      </trkpt>
      <trkpt lat="49.59717" lon="4.98026">
        <ele>281.8</ele>
        <time>2018-10-14T14:10:11Z</time>
      </trkpt>
      <trkpt lat="49.59725" lon="4.9805">
        <ele>281.32</ele>
        <time>2018-10-14T14:10:27Z</time>
      </trkpt>
      <trkpt lat="49.59728" lon="4.98056">
        <ele>281.32</ele>
        <time>2018-10-14T14:10:31Z</time>
      </trkpt>
      <trkpt lat="49.59732" lon="4.98064">
        <ele>281.32</ele>
        <time>2018-10-14T14:10:37Z</time>
      </trkpt>
      <trkpt lat="49.59735" lon="4.98075">
        <ele>281.8</ele>
        <time>2018-10-14T14:10:44Z</time>
      </trkpt>
      <trkpt lat="49.59742" lon="4.98096">
        <ele>282.77</ele>
        <time>2018-10-14T14:10:59Z</time>
      </trkpt>
      <trkpt lat="49.59743" lon="4.981">
        <ele>282.77</ele>
        <time>2018-10-14T14:11:02Z</time>
      </trkpt>
      <trkpt lat="49.59753" lon="4.98125">
        <ele>282.77</ele>
        <time>2018-10-14T14:11:18Z</time>
      </trkpt>
      <trkpt lat="49.59763" lon="4.98147">
        <ele>285.17</ele>
        <time>2018-10-14T14:11:34Z</time>
      </trkpt>
      <trkpt lat="49.59766" lon="4.98153">
        <ele>285.65</ele>
        <time>2018-10-14T14:11:38Z</time>
      </trkpt>
      <trkpt lat="49.59768" lon="4.98164">
        <ele>285.17</ele>
        <time>2018-10-14T14:11:45Z</time>
      </trkpt>
      <trkpt lat="49.59777" lon="4.98187">
        <ele>285.65</ele>
        <time>2018-10-14T14:12:01Z</time>
      </trkpt>
      <trkpt lat="49.59779" lon="4.98193">
        <ele>285.17</ele>
        <time>2018-10-14T14:12:05Z</time>
      </trkpt>
      <trkpt lat="49.59781" lon="4.98195">
        <ele>285.17</ele>
        <time>2018-10-14T14:12:07Z</time>
      </trkpt>
      <trkpt lat="49.59784" lon="4.98208">
        <ele>284.21</ele>
        <time>2018-10-14T14:12:15Z</time>
      </trkpt>
      <trkpt lat="49.59792" lon="4.98228">
        <ele>286.13</ele>
        <time>2018-10-14T14:12:29Z</time>
      </trkpt>
      <trkpt lat="49.598" lon="4.98242">
        <ele>290.46</ele>
        <time>2018-10-14T14:12:43Z</time>
      </trkpt>
      <trkpt lat="49.598" lon="4.98244">
        <ele>290.46</ele>
        <time>2018-10-14T14:12:44Z</time>
      </trkpt>
      <trkpt lat="49.59802" lon="4.98251">
        <ele>289.97</ele>
        <time>2018-10-14T14:12:49Z</time>
      </trkpt>
      <trkpt lat="49.59812" lon="4.98277">
        <ele>289.01</ele>
        <time>2018-10-14T14:13:07Z</time>
      </trkpt>
      <trkpt lat="49.59825" lon="4.98305">
        <ele>290.94</ele>
        <time>2018-10-14T14:13:28Z</time>
      </trkpt>
      <trkpt lat="49.59832" lon="4.9833">
        <ele>296.7</ele>
        <time>2018-10-14T14:13:45Z</time>
      </trkpt>
      <trkpt lat="49.59836" lon="4.98344">
        <ele>301.03</ele>
        <time>2018-10-14T14:13:57Z</time>
      </trkpt>
      <trkpt lat="49.59843" lon="4.98361">
        <ele>308.72</ele>
        <time>2018-10-14T14:14:11Z</time>
      </trkpt>
      <trkpt lat="49.59852" lon="4.9838">
        <ele>313.05</ele>
        <time>2018-10-14T14:14:25Z</time>
      </trkpt>
      <trkpt lat="49.59858" lon="4.98401">
        <ele>314.49</ele>
        <time>2018-10-14T14:14:39Z</time>
      </trkpt>
      <trkpt lat="49.59867" lon="4.98422">
        <ele>318.33</ele>
        <time>2018-10-14T14:14:53Z</time>
      </trkpt>
      <trkpt lat="49.59876" lon="4.98439">
        <ele>319.3</ele>
        <time>2018-10-14T14:15:06Z</time>
      </trkpt>
      <trkpt lat="49.59884" lon="4.98464">
        <ele>320.74</ele>
        <time>2018-10-14T14:15:21Z</time>
      </trkpt>
      <trkpt lat="49.59897" lon="4.98497">
        <ele>319.3</ele>
        <time>2018-10-14T14:15:39Z</time>
      </trkpt>
      <trkpt lat="49.59906" lon="4.98522">
        <ele>318.81</ele>
        <time>2018-10-14T14:15:55Z</time>
      </trkpt>
      <trkpt lat="49.59912" lon="4.9854">
        <ele>318.33</ele>
        <time>2018-10-14T14:16:09Z</time>
      </trkpt>
      <trkpt lat="49.59917" lon="4.98546">
        <ele>318.33</ele>
        <time>2018-10-14T14:16:15Z</time>
      </trkpt>
      <trkpt lat="49.59938" lon="4.9856">
        <ele>314.01</ele>
        <time>2018-10-14T14:16:34Z</time>
      </trkpt>
      <trkpt lat="49.59954" lon="4.98573">
        <ele>309.2</ele>
        <time>2018-10-14T14:16:50Z</time>
      </trkpt>
      <trkpt lat="49.59971" lon="4.98581">
        <ele>306.32</ele>
        <time>2018-10-14T14:17:05Z</time>
      </trkpt>
      <trkpt lat="49.59986" lon="4.9859">
        <ele>302.47</ele>
        <time>2018-10-14T14:17:19Z</time>
      </trkpt>
      <trkpt lat="49.6" lon="4.98597">
        <ele>299.59</ele>
        <time>2018-10-14T14:17:35Z</time>
      </trkpt>
      <trkpt lat="49.60015" lon="4.98606">
        <ele>295.74</ele>
        <time>2018-10-14T14:17:51Z</time>
      </trkpt>
      <trkpt lat="49.6002" lon="4.98611">
        <ele>295.26</ele>
        <time>2018-10-14T14:18:00Z</time>
      </trkpt>
      <trkpt lat="49.60034" lon="4.98617">
        <ele>294.78</ele>
        <time>2018-10-14T14:18:14Z</time>
      </trkpt>
      <trkpt lat="49.60053" lon="4.98616">
        <ele>296.7</ele>
        <time>2018-10-14T14:18:31Z</time>
      </trkpt>
      <trkpt lat="49.6007" lon="4.98606">
        <ele>300.07</ele>
        <time>2018-10-14T14:18:47Z</time>
      </trkpt>
      <trkpt lat="49.60081" lon="4.98611">
        <ele>299.59</ele>
        <time>2018-10-14T14:18:57Z</time>
      </trkpt>
      <trkpt lat="49.60096" lon="4.98628">
        <ele>302.47</ele>
        <time>2018-10-14T14:19:15Z</time>
      </trkpt>
      <trkpt lat="49.6011" lon="4.98646">
        <ele>302.95</ele>
        <time>2018-10-14T14:19:32Z</time>
      </trkpt>
      <trkpt lat="49.60123" lon="4.98665">
        <ele>303.91</ele>
        <time>2018-10-14T14:19:50Z</time>
      </trkpt>
      <trkpt lat="49.60127" lon="4.98669">
        <ele>302.95</ele>
        <time>2018-10-14T14:19:55Z</time>
      </trkpt>
      <trkpt lat="49.60129" lon="4.98671">
        <ele>302.95</ele>
        <time>2018-10-14T14:19:57Z</time>
      </trkpt>
      <trkpt lat="49.60142" lon="4.98689">
        <ele>301.51</ele>
        <time>2018-10-14T14:20:15Z</time>
      </trkpt>
      <trkpt lat="49.60155" lon="4.9871">
        <ele>301.51</ele>
        <time>2018-10-14T14:20:32Z</time>
      </trkpt>
      <trkpt lat="49.6017" lon="4.98727">
        <ele>299.59</ele>
        <time>2018-10-14T14:20:49Z</time>
      </trkpt>
      <trkpt lat="49.60184" lon="4.98744">
        <ele>301.99</ele>
        <time>2018-10-14T14:21:08Z</time>
      </trkpt>
      <trkpt lat="49.602" lon="4.9875">
        <ele>301.03</ele>
        <time>2018-10-14T14:21:23Z</time>
      </trkpt>
      <trkpt lat="49.60219" lon="4.98755">
        <ele>299.11</ele>
        <time>2018-10-14T14:21:39Z</time>
      </trkpt>
      <trkpt lat="49.60237" lon="4.98761">
        <ele>299.11</ele>
        <time>2018-10-14T14:21:56Z</time>
      </trkpt>
      <trkpt lat="49.60257" lon="4.98767">
        <ele>296.22</ele>
        <time>2018-10-14T14:22:14Z</time>
      </trkpt>
      <trkpt lat="49.60275" lon="4.98774">
        <ele>292.86</ele>
        <time>2018-10-14T14:22:29Z</time>
      </trkpt>
      <trkpt lat="49.60295" lon="4.9878">
        <ele>290.94</ele>
        <time>2018-10-14T14:22:46Z</time>
      </trkpt>
      <trkpt lat="49.60308" lon="4.98783">
        <ele>292.86</ele>
        <time>2018-10-14T14:22:59Z</time>
      </trkpt>
      <trkpt lat="49.60326" lon="4.98788">
        <ele>288.53</ele>
        <time>2018-10-14T14:23:16Z</time>
      </trkpt>
      <trkpt lat="49.60344" lon="4.98798">
        <ele>289.49</ele>
        <time>2018-10-14T14:23:33Z</time>
      </trkpt>
      <trkpt lat="49.60359" lon="4.98808">
        <ele>288.53</ele>
        <time>2018-10-14T14:23:49Z</time>
      </trkpt>
      <trkpt lat="49.60376" lon="4.98815">
        <ele>289.01</ele>
        <time>2018-10-14T14:24:05Z</time>
      </trkpt>
      <trkpt lat="49.60387" lon="4.98821">
        <ele>289.97</ele>
        <time>2018-10-14T14:24:15Z</time>
      </trkpt>
      <trkpt lat="49.60408" lon="4.98835">
        <ele>298.63</ele>
        <time>2018-10-14T14:24:32Z</time>
      </trkpt>
      <trkpt lat="49.60422" lon="4.98842">
        <ele>301.03</ele>
        <time>2018-10-14T14:24:47Z</time>
      </trkpt>
      <trkpt lat="49.60436" lon="4.98848">
        <ele>301.99</ele>
        <time>2018-10-14T14:25:00Z</time>
      </trkpt>
      <trkpt lat="49.60454" lon="4.98859">
        <ele>301.99</ele>
        <time>2018-10-14T14:25:18Z</time>
      </trkpt>
      <trkpt lat="49.60469" lon="4.98869">
        <ele>300.55</ele>
        <time>2018-10-14T14:25:33Z</time>
      </trkpt>
      <trkpt lat="49.60488" lon="4.98879">
        <ele>302.47</ele>
        <time>2018-10-14T14:25:49Z</time>
      </trkpt>
      <trkpt lat="49.60508" lon="4.98891">
        <ele>304.88</ele>
        <time>2018-10-14T14:26:07Z</time>
      </trkpt>
      <trkpt lat="49.60517" lon="4.98898">
        <ele>306.8</ele>
        <time>2018-10-14T14:26:16Z</time>
      </trkpt>
      <trkpt lat="49.60533" lon="4.98903">
        <ele>306.8</ele>
        <time>2018-10-14T14:26:33Z</time>
      </trkpt>
      <trkpt lat="49.60551" lon="4.98909">
        <ele>304.88</ele>
        <time>2018-10-14T14:26:50Z</time>
      </trkpt>
      <trkpt lat="49.60562" lon="4.98912">
        <ele>302.47</ele>
        <time>2018-10-14T14:27:01Z</time>
      </trkpt>
      <trkpt lat="49.60579" lon="4.98915">
        <ele>302.47</ele>
        <time>2018-10-14T14:27:17Z</time>
      </trkpt>
      <trkpt lat="49.60595" lon="4.98918">
        <ele>304.39</ele>
        <time>2018-10-14T14:27:31Z</time>
      </trkpt>
      <trkpt lat="49.60611" lon="4.98917">
        <ele>304.88</ele>
        <time>2018-10-14T14:27:46Z</time>
      </trkpt>
      <trkpt lat="49.60615" lon="4.98916">
        <ele>305.36</ele>
        <time>2018-10-14T14:27:49Z</time>
      </trkpt>
      <trkpt lat="49.60631" lon="4.98903">
        <ele>305.36</ele>
        <time>2018-10-14T14:28:04Z</time>
      </trkpt>
      <trkpt lat="49.60645" lon="4.98881">
        <ele>304.39</ele>
        <time>2018-10-14T14:28:21Z</time>
      </trkpt>
      <trkpt lat="49.60656" lon="4.98856">
        <ele>303.91</ele>
        <time>2018-10-14T14:28:37Z</time>
      </trkpt>
      <trkpt lat="49.60665" lon="4.98835">
        <ele>302.95</ele>
        <time>2018-10-14T14:28:52Z</time>
      </trkpt>
      <trkpt lat="49.60673" lon="4.98821">
        <ele>304.88</ele>
        <time>2018-10-14T14:29:03Z</time>
      </trkpt>
      <trkpt lat="49.60683" lon="4.98803">
        <ele>307.76</ele>
        <time>2018-10-14T14:29:16Z</time>
      </trkpt>
      <trkpt lat="49.60692" lon="4.98783">
        <ele>308.24</ele>
        <time>2018-10-14T14:29:29Z</time>
      </trkpt>
      <trkpt lat="49.60694" lon="4.98779">
        <ele>308.24</ele>
        <time>2018-10-14T14:29:32Z</time>
      </trkpt>
      <trkpt lat="49.60702" lon="4.98758">
        <ele>308.72</ele>
        <time>2018-10-14T14:29:47Z</time>
      </trkpt>
      <trkpt lat="49.60705" lon="4.98752">
        <ele>307.28</ele>
        <time>2018-10-14T14:29:52Z</time>
      </trkpt>
      <trkpt lat="49.60716" lon="4.9873">
        <ele>307.28</ele>
        <time>2018-10-14T14:30:07Z</time>
      </trkpt>
      <trkpt lat="49.60726" lon="4.98707">
        <ele>307.76</ele>
        <time>2018-10-14T14:30:21Z</time>
      </trkpt>
      <trkpt lat="49.60738" lon="4.98685">
        <ele>306.32</ele>
        <time>2018-10-14T14:30:36Z</time>
      </trkpt>
      <trkpt lat="49.60751" lon="4.98663">
        <ele>305.36</ele>
        <time>2018-10-14T14:30:52Z</time>
      </trkpt>
      <trkpt lat="49.6076" lon="4.98645">
        <ele>305.36</ele>
        <time>2018-10-14T14:31:06Z</time>
      </trkpt>
      <trkpt lat="49.6077" lon="4.98623">
        <ele>303.43</ele>
        <time>2018-10-14T14:31:22Z</time>
      </trkpt>
      <trkpt lat="49.60781" lon="4.98604">
        <ele>302.95</ele>
        <time>2018-10-14T14:31:36Z</time>
      </trkpt>
      <trkpt lat="49.6079" lon="4.98585">
        <ele>303.43</ele>
        <time>2018-10-14T14:31:51Z</time>
      </trkpt>
      <trkpt lat="49.60805" lon="4.98559">
        <ele>307.28</ele>
        <time>2018-10-14T14:32:09Z</time>
      </trkpt>
      <trkpt lat="49.60818" lon="4.98533">
        <ele>310.16</ele>
        <time>2018-10-14T14:32:27Z</time>
      </trkpt>
      <trkpt lat="49.60827" lon="4.98515">
        <ele>311.12</ele>
        <time>2018-10-14T14:32:40Z</time>
      </trkpt>
      <trkpt lat="49.6083" lon="4.9851">
        <ele>310.64</ele>
        <time>2018-10-14T14:32:44Z</time>
      </trkpt>
      <trkpt lat="49.6084" lon="4.98487">
        <ele>309.2</ele>
        <time>2018-10-14T14:32:59Z</time>
      </trkpt>
      <trkpt lat="49.60849" lon="4.98464">
        <ele>309.2</ele>
        <time>2018-10-14T14:33:13Z</time>
      </trkpt>
      <trkpt lat="49.6086" lon="4.98436">
        <ele>309.68</ele>
        <time>2018-10-14T14:33:30Z</time>
      </trkpt>
      <trkpt lat="49.60871" lon="4.98411">
        <ele>308.72</ele>
        <time>2018-10-14T14:33:46Z</time>
      </trkpt>
      <trkpt lat="49.60874" lon="4.98397">
        <ele>306.8</ele>
        <time>2018-10-14T14:33:55Z</time>
      </trkpt>
      <trkpt lat="49.60877" lon="4.98391">
        <ele>306.8</ele>
        <time>2018-10-14T14:33:59Z</time>
      </trkpt>
      <trkpt lat="49.60885" lon="4.98369">
        <ele>307.28</ele>
        <time>2018-10-14T14:34:17Z</time>
      </trkpt>
      <trkpt lat="49.60889" lon="4.98353">
        <ele>303.91</ele>
        <time>2018-10-14T14:34:28Z</time>
      </trkpt>
      <trkpt lat="49.60896" lon="4.98331">
        <ele>301.99</ele>
        <time>2018-10-14T14:34:43Z</time>
      </trkpt>
      <trkpt lat="49.60905" lon="4.98308">
        <ele>300.55</ele>
        <time>2018-10-14T14:34:58Z</time>
      </trkpt>
      <trkpt lat="49.60909" lon="4.98287">
        <ele>298.63</ele>
        <time>2018-10-14T14:35:13Z</time>
      </trkpt>
      <trkpt lat="49.6091" lon="4.98283">
        <ele>298.63</ele>
        <time>2018-10-14T14:35:16Z</time>
      </trkpt>
      <trkpt lat="49.60919" lon="4.98261">
        <ele>301.03</ele>
        <time>2018-10-14T14:35:30Z</time>
      </trkpt>
      <trkpt lat="49.60929" lon="4.98232">
        <ele>303.43</ele>
        <time>2018-10-14T14:35:47Z</time>
      </trkpt>
      <trkpt lat="49.60942" lon="4.98208">
        <ele>301.03</ele>
        <time>2018-10-14T14:36:03Z</time>
      </trkpt>
      <trkpt lat="49.60954" lon="4.98188">
        <ele>300.55</ele>
        <time>2018-10-14T14:36:19Z</time>
      </trkpt>
      <trkpt lat="49.60969" lon="4.98163">
        <ele>300.55</ele>
        <time>2018-10-14T14:36:37Z</time>
      </trkpt>
      <trkpt lat="49.60987" lon="4.98139">
        <ele>300.55</ele>
        <time>2018-10-14T14:36:56Z</time>
      </trkpt>
      <trkpt lat="49.60996" lon="4.98122">
        <ele>299.59</ele>
        <time>2018-10-14T14:37:08Z</time>
      </trkpt>
      <trkpt lat="49.61013" lon="4.98095">
        <ele>298.63</ele>
        <time>2018-10-14T14:37:26Z</time>
      </trkpt>
      <trkpt lat="49.61018" lon="4.9809">
        <ele>296.7</ele>
        <time>2018-10-14T14:37:31Z</time>
      </trkpt>
      <trkpt lat="49.61029" lon="4.98064">
        <ele>298.63</ele>
        <time>2018-10-14T14:37:49Z</time>
      </trkpt>
      <trkpt lat="49.61041" lon="4.98047">
        <ele>298.63</ele>
        <time>2018-10-14T14:38:03Z</time>
      </trkpt>
      <trkpt lat="49.61049" lon="4.9803">
        <ele>298.63</ele>
        <time>2018-10-14T14:38:17Z</time>
      </trkpt>
      <trkpt lat="49.6106" lon="4.98013">
        <ele>301.51</ele>
        <time>2018-10-14T14:38:30Z</time>
      </trkpt>
      <trkpt lat="49.6107" lon="4.98003">
        <ele>301.99</ele>
        <time>2018-10-14T14:38:38Z</time>
      </trkpt>
      <trkpt lat="49.6108" lon="4.97986">
        <ele>297.67</ele>
        <time>2018-10-14T14:38:52Z</time>
      </trkpt>
      <trkpt lat="49.61088" lon="4.97969">
        <ele>295.74</ele>
        <time>2018-10-14T14:39:05Z</time>
      </trkpt>
      <trkpt lat="49.61098" lon="4.97948">
        <ele>293.34</ele>
        <time>2018-10-14T14:39:19Z</time>
      </trkpt>
      <trkpt lat="49.61109" lon="4.9793">
        <ele>290.46</ele>
        <time>2018-10-14T14:39:33Z</time>
      </trkpt>
      <trkpt lat="49.61119" lon="4.97914">
        <ele>285.65</ele>
        <time>2018-10-14T14:39:49Z</time>
      </trkpt>
      <trkpt lat="49.6113" lon="4.97901">
        <ele>282.77</ele>
        <time>2018-10-14T14:40:02Z</time>
      </trkpt>
      <trkpt lat="49.61146" lon="4.97881">
        <ele>281.32</ele>
        <time>2018-10-14T14:40:20Z</time>
      </trkpt>
      <trkpt lat="49.61161" lon="4.97863">
        <ele>281.8</ele>
        <time>2018-10-14T14:40:36Z</time>
      </trkpt>
      <trkpt lat="49.61174" lon="4.97848">
        <ele>281.32</ele>
        <time>2018-10-14T14:40:52Z</time>
      </trkpt>
      <trkpt lat="49.61189" lon="4.97831">
        <ele>278.44</ele>
        <time>2018-10-14T14:41:10Z</time>
      </trkpt>
      <trkpt lat="49.61199" lon="4.97815">
        <ele>277.48</ele>
        <time>2018-10-14T14:41:26Z</time>
      </trkpt>
      <trkpt lat="49.61212" lon="4.97798">
        <ele>281.32</ele>
        <time>2018-10-14T14:41:41Z</time>
      </trkpt>
      <trkpt lat="49.61212" lon="4.97798">
        <ele>283.25</ele>
        <time>2018-10-14T14:41:43Z</time>
      </trkpt>
      <trkpt lat="49.61227" lon="4.97785">
        <ele>289.49</ele>
        <time>2018-10-14T14:41:57Z</time>
      </trkpt>
      <trkpt lat="49.61241" lon="4.97778">
        <ele>287.09</ele>
        <time>2018-10-14T14:42:13Z</time>
      </trkpt>
      <trkpt lat="49.61259" lon="4.97771">
        <ele>284.21</ele>
        <time>2018-10-14T14:42:31Z</time>
      </trkpt>
      <trkpt lat="49.61274" lon="4.97762">
        <ele>282.77</ele>
        <time>2018-10-14T14:42:48Z</time>
      </trkpt>
      <trkpt lat="49.61289" lon="4.97751">
        <ele>283.25</ele>
        <time>2018-10-14T14:43:04Z</time>
      </trkpt>
      <trkpt lat="49.61305" lon="4.9774">
        <ele>280.84</ele>
        <time>2018-10-14T14:43:22Z</time>
      </trkpt>
      <trkpt lat="49.61312" lon="4.97732">
        <ele>279.88</ele>
        <time>2018-10-14T14:43:31Z</time>
      </trkpt>
      <trkpt lat="49.61328" lon="4.9772">
        <ele>279.88</ele>
        <time>2018-10-14T14:43:49Z</time>
      </trkpt>
      <trkpt lat="49.61341" lon="4.97704">
        <ele>276.04</ele>
        <time>2018-10-14T14:44:06Z</time>
      </trkpt>
      <trkpt lat="49.61357" lon="4.9769">
        <ele>275.07</ele>
        <time>2018-10-14T14:44:25Z</time>
      </trkpt>
      <trkpt lat="49.61374" lon="4.97672">
        <ele>274.59</ele>
        <time>2018-10-14T14:44:45Z</time>
      </trkpt>
      <trkpt lat="49.61391" lon="4.97658">
        <ele>274.59</ele>
        <time>2018-10-14T14:45:04Z</time>
      </trkpt>
      <trkpt lat="49.61404" lon="4.97642">
        <ele>272.19</ele>
        <time>2018-10-14T14:45:21Z</time>
      </trkpt>
      <trkpt lat="49.61422" lon="4.97618">
        <ele>270.75</ele>
        <time>2018-10-14T14:45:43Z</time>
      </trkpt>
      <trkpt lat="49.61439" lon="4.97598">
        <ele>268.35</ele>
        <time>2018-10-14T14:46:03Z</time>
      </trkpt>
      <trkpt lat="49.61454" lon="4.97577">
        <ele>268.35</ele>
        <time>2018-10-14T14:46:21Z</time>
      </trkpt>
      <trkpt lat="49.61465" lon="4.97563">
        <ele>265.94</ele>
        <time>2018-10-14T14:46:38Z</time>
      </trkpt>
      <trkpt lat="49.6148" lon="4.97544">
        <ele>265.46</ele>
        <time>2018-10-14T14:46:56Z</time>
      </trkpt>
      <trkpt lat="49.61495" lon="4.97527">
        <ele>263.54</ele>
        <time>2018-10-14T14:47:14Z</time>
      </trkpt>
      <trkpt lat="49.61508" lon="4.97509">
        <ele>261.14</ele>
        <time>2018-10-14T14:47:32Z</time>
      </trkpt>
      <trkpt lat="49.61521" lon="4.9749">
        <ele>258.73</ele>
        <time>2018-10-14T14:47:49Z</time>
      </trkpt>
      <trkpt lat="49.61528" lon="4.9748">
        <ele>258.25</ele>
        <time>2018-10-14T14:47:58Z</time>
      </trkpt>
      <trkpt lat="49.61537" lon="4.97464">
        <ele>256.33</ele>
        <time>2018-10-14T14:48:12Z</time>
      </trkpt>
      <trkpt lat="49.61547" lon="4.97447">
        <ele>254.41</ele>
        <time>2018-10-14T14:48:27Z</time>
      </trkpt>
      <trkpt lat="49.61561" lon="4.97423">
        <ele>253.44</ele>
        <time>2018-10-14T14:48:45Z</time>
      </trkpt>
      <trkpt lat="49.61574" lon="4.97403">
        <ele>252</ele>
        <time>2018-10-14T14:49:01Z</time>
      </trkpt>
      <trkpt lat="49.6159" lon="4.97379">
        <ele>251.52</ele>
        <time>2018-10-14T14:49:22Z</time>
      </trkpt>
      <trkpt lat="49.61605" lon="4.97356">
        <ele>252.48</ele>
        <time>2018-10-14T14:49:40Z</time>
      </trkpt>
      <trkpt lat="49.61622" lon="4.97332">
        <ele>252.96</ele>
        <time>2018-10-14T14:50:01Z</time>
      </trkpt>
      <trkpt lat="49.61638" lon="4.97311">
        <ele>253.44</ele>
        <time>2018-10-14T14:50:20Z</time>
      </trkpt>
      <trkpt lat="49.61641" lon="4.97308">
        <ele>253.44</ele>
        <time>2018-10-14T14:50:23Z</time>
      </trkpt>
      <trkpt lat="49.61661" lon="4.97285">
        <ele>253.93</ele>
        <time>2018-10-14T14:50:44Z</time>
      </trkpt>
      <trkpt lat="49.61674" lon="4.97264">
        <ele>251.52</ele>
        <time>2018-10-14T14:51:00Z</time>
      </trkpt>
      <trkpt lat="49.61686" lon="4.97245">
        <ele>250.56</ele>
        <time>2018-10-14T14:51:15Z</time>
      </trkpt>
      <trkpt lat="49.61695" lon="4.97224">
        <ele>250.08</ele>
        <time>2018-10-14T14:51:29Z</time>
      </trkpt>
      <trkpt lat="49.61712" lon="4.97197">
        <ele>249.6</ele>
        <time>2018-10-14T14:51:49Z</time>
      </trkpt>
      <trkpt lat="49.61729" lon="4.97175">
        <ele>246.23</ele>
        <time>2018-10-14T14:52:07Z</time>
      </trkpt>
      <trkpt lat="49.61744" lon="4.97156">
        <ele>246.23</ele>
        <time>2018-10-14T14:52:25Z</time>
      </trkpt>
      <trkpt lat="49.61748" lon="4.97153">
        <ele>244.79</ele>
        <time>2018-10-14T14:52:31Z</time>
      </trkpt>
      <trkpt lat="49.6176" lon="4.97183">
        <ele>245.27</ele>
        <time>2018-10-14T14:52:49Z</time>
      </trkpt>
      <trkpt lat="49.6177" lon="4.97219">
        <ele>246.23</ele>
        <time>2018-10-14T14:53:09Z</time>
      </trkpt>
      <trkpt lat="49.61778" lon="4.97246">
        <ele>249.12</ele>
        <time>2018-10-14T14:53:26Z</time>
      </trkpt>
      <trkpt lat="49.61786" lon="4.97275">
        <ele>253.44</ele>
        <time>2018-10-14T14:53:44Z</time>
      </trkpt>
      <trkpt lat="49.61793" lon="4.973">
        <ele>255.37</ele>
        <time>2018-10-14T14:54:00Z</time>
      </trkpt>
      <trkpt lat="49.618" lon="4.97328">
        <ele>257.77</ele>
        <time>2018-10-14T14:54:17Z</time>
      </trkpt>
      <trkpt lat="49.61807" lon="4.97358">
        <ele>259.69</ele>
        <time>2018-10-14T14:54:35Z</time>
      </trkpt>
      <trkpt lat="49.61814" lon="4.97389">
        <ele>261.14</ele>
        <time>2018-10-14T14:54:53Z</time>
      </trkpt>
      <trkpt lat="49.61823" lon="4.97417">
        <ele>262.1</ele>
        <time>2018-10-14T14:55:10Z</time>
      </trkpt>
      <trkpt lat="49.61838" lon="4.97436">
        <ele>261.62</ele>
        <time>2018-10-14T14:55:27Z</time>
      </trkpt>
      <trkpt lat="49.61856" lon="4.97458">
        <ele>262.58</ele>
        <time>2018-10-14T14:55:46Z</time>
      </trkpt>
      <trkpt lat="49.61867" lon="4.97474">
        <ele>263.54</ele>
        <time>2018-10-14T14:55:59Z</time>
      </trkpt>
      <trkpt lat="49.61883" lon="4.97495">
        <ele>265.46</ele>
        <time>2018-10-14T14:56:17Z</time>
      </trkpt>
      <trkpt lat="49.619" lon="4.97505">
        <ele>267.38</ele>
        <time>2018-10-14T14:56:33Z</time>
      </trkpt>
      <trkpt lat="49.61921" lon="4.97506">
        <ele>269.79</ele>
        <time>2018-10-14T14:56:51Z</time>
      </trkpt>
      <trkpt lat="49.61944" lon="4.97504">
        <ele>270.27</ele>
        <time>2018-10-14T14:57:10Z</time>
      </trkpt>
      <trkpt lat="49.61953" lon="4.97505">
        <ele>271.71</ele>
        <time>2018-10-14T14:57:18Z</time>
      </trkpt>
      <trkpt lat="49.61974" lon="4.97503">
        <ele>273.15</ele>
        <time>2018-10-14T14:57:36Z</time>
      </trkpt>
      <trkpt lat="49.61996" lon="4.97504">
        <ele>273.63</ele>
        <time>2018-10-14T14:57:55Z</time>
      </trkpt>
      <trkpt lat="49.62015" lon="4.97503">
        <ele>272.67</ele>
        <time>2018-10-14T14:58:11Z</time>
      </trkpt>
      <trkpt lat="49.62036" lon="4.97509">
        <ele>273.63</ele>
        <time>2018-10-14T14:58:29Z</time>
      </trkpt>
      <trkpt lat="49.62036" lon="4.97538">
        <ele>275.56</ele>
        <time>2018-10-14T14:58:45Z</time>
      </trkpt>
      <trkpt lat="49.62034" lon="4.97571">
        <ele>277.48</ele>
        <time>2018-10-14T14:59:03Z</time>
      </trkpt>
      <trkpt lat="49.62033" lon="4.97606">
        <ele>279.88</ele>
        <time>2018-10-14T14:59:22Z</time>
      </trkpt>
      <trkpt lat="49.62031" lon="4.97644">
        <ele>281.32</ele>
        <time>2018-10-14T14:59:42Z</time>
      </trkpt>
      <trkpt lat="49.62026" lon="4.97684">
        <ele>282.77</ele>
        <time>2018-10-14T15:00:04Z</time>
      </trkpt>
      <trkpt lat="49.62019" lon="4.97729">
        <ele>284.21</ele>
        <time>2018-10-14T15:00:29Z</time>
      </trkpt>
      <trkpt lat="49.62013" lon="4.97763">
        <ele>284.21</ele>
        <time>2018-10-14T15:00:49Z</time>
      </trkpt>
      <trkpt lat="49.62006" lon="4.97798">
        <ele>284.21</ele>
        <time>2018-10-14T15:01:10Z</time>
      </trkpt>
      <trkpt lat="49.61998" lon="4.97835">
        <ele>284.69</ele>
        <time>2018-10-14T15:01:32Z</time>
      </trkpt>
      <trkpt lat="49.61988" lon="4.97868">
        <ele>284.21</ele>
        <time>2018-10-14T15:01:52Z</time>
      </trkpt>
      <trkpt lat="49.61975" lon="4.97896">
        <ele>284.21</ele>
        <time>2018-10-14T15:02:12Z</time>
      </trkpt>
      <trkpt lat="49.6196" lon="4.97921">
        <ele>284.69</ele>
        <time>2018-10-14T15:02:31Z</time>
      </trkpt>
      <trkpt lat="49.61944" lon="4.97944">
        <ele>285.17</ele>
        <time>2018-10-14T15:02:50Z</time>
      </trkpt>
      <trkpt lat="49.61926" lon="4.9797">
        <ele>284.69</ele>
        <time>2018-10-14T15:03:11Z</time>
      </trkpt>
      <trkpt lat="49.61911" lon="4.97992">
        <ele>284.21</ele>
        <time>2018-10-14T15:03:29Z</time>
      </trkpt>
      <trkpt lat="49.61898" lon="4.98015">
        <ele>285.65</ele>
        <time>2018-10-14T15:03:48Z</time>
      </trkpt>
      <trkpt lat="49.61893" lon="4.98024">
        <ele>286.13</ele>
        <time>2018-10-14T15:04:00Z</time>
      </trkpt>
      <trkpt lat="49.61884" lon="4.98043">
        <ele>288.05</ele>
        <time>2018-10-14T15:04:16Z</time>
      </trkpt>
      <trkpt lat="49.61874" lon="4.98063">
        <ele>289.49</ele>
        <time>2018-10-14T15:04:32Z</time>
      </trkpt>
      <trkpt lat="49.61871" lon="4.98071">
        <ele>290.46</ele>
        <time>2018-10-14T15:04:38Z</time>
      </trkpt>
      <trkpt lat="49.61861" lon="4.98093">
        <ele>293.82</ele>
        <time>2018-10-14T15:04:56Z</time>
      </trkpt>
      <trkpt lat="49.6185" lon="4.98121">
        <ele>294.3</ele>
        <time>2018-10-14T15:05:14Z</time>
      </trkpt>
      <trkpt lat="49.61841" lon="4.98146">
        <ele>295.26</ele>
        <time>2018-10-14T15:05:30Z</time>
      </trkpt>
      <trkpt lat="49.61831" lon="4.98173">
        <ele>296.22</ele>
        <time>2018-10-14T15:05:48Z</time>
      </trkpt>
      <trkpt lat="49.61833" lon="4.98182">
        <ele>296.22</ele>
        <time>2018-10-14T15:05:55Z</time>
      </trkpt>
      <trkpt lat="49.61839" lon="4.9818">
        <ele>293.82</ele>
        <time>2018-10-14T15:06:10Z</time>
      </trkpt>
      <trkpt lat="49.61839" lon="4.98183">
        <ele>293.82</ele>
        <time>2018-10-14T15:06:26Z</time>
      </trkpt>
      <trkpt lat="49.61839" lon="4.98182">
        <ele>294.78</ele>
        <time>2018-10-14T15:06:47Z</time>
      </trkpt>
      <trkpt lat="49.61838" lon="4.98181">
        <ele>294.78</ele>
        <time>2018-10-14T15:07:05Z</time>
      </trkpt>
      <trkpt lat="49.61839" lon="4.98181">
        <ele>294.78</ele>
        <time>2018-10-14T15:07:26Z</time>
      </trkpt>
      <trkpt lat="49.61839" lon="4.98182">
        <ele>294.78</ele>
        <time>2018-10-14T15:07:50Z</time>
      </trkpt>
      <trkpt lat="49.61838" lon="4.98182">
        <ele>294.78</ele>
        <time>2018-10-14T15:08:04Z</time>
      </trkpt>
      <trkpt lat="49.61838" lon="4.98182">
        <ele>294.78</ele>
        <time>2018-10-14T15:08:28Z</time>
      </trkpt>
      <trkpt lat="49.61838" lon="4.98181">
        <ele>295.26</ele>
        <time>2018-10-14T15:08:52Z</time>
      </trkpt>
      <trkpt lat="49.61838" lon="4.98181">
        <ele>295.74</ele>
        <time>2018-10-14T15:09:13Z</time>
      </trkpt>
      <trkpt lat="49.61839" lon="4.98181">
        <ele>295.74</ele>
        <time>2018-10-14T15:09:26Z</time>
      </trkpt>
      <trkpt lat="49.6184" lon="4.98184">
        <ele>295.74</ele>
        <time>2018-10-14T15:09:43Z</time>
      </trkpt>
      <trkpt lat="49.6184" lon="4.98182">
        <ele>296.7</ele>
        <time>2018-10-14T15:10:06Z</time>
      </trkpt>
      <trkpt lat="49.6184" lon="4.98179">
        <ele>296.7</ele>
        <time>2018-10-14T15:10:26Z</time>
      </trkpt>
      <trkpt lat="49.6184" lon="4.98181">
        <ele>296.7</ele>
        <time>2018-10-14T15:10:41Z</time>
      </trkpt>
      <trkpt lat="49.61841" lon="4.98179">
        <ele>298.15</ele>
        <time>2018-10-14T15:11:00Z</time>
      </trkpt>
      <trkpt lat="49.61842" lon="4.98178">
        <ele>298.15</ele>
        <time>2018-10-14T15:11:02Z</time>
      </trkpt>
      <trkpt lat="49.61853" lon="4.98174">
        <ele>297.18</ele>
        <time>2018-10-14T15:11:14Z</time>
      </trkpt>
      <trkpt lat="49.61862" lon="4.98166">
        <ele>292.86</ele>
        <time>2018-10-14T15:11:28Z</time>
      </trkpt>
      <trkpt lat="49.61871" lon="4.98159">
        <ele>289.01</ele>
        <time>2018-10-14T15:11:41Z</time>
      </trkpt>
      <trkpt lat="49.61884" lon="4.98155">
        <ele>285.17</ele>
        <time>2018-10-14T15:11:55Z</time>
      </trkpt>
      <trkpt lat="49.61898" lon="4.98156">
        <ele>283.25</ele>
        <time>2018-10-14T15:12:12Z</time>
      </trkpt>
      <trkpt lat="49.61913" lon="4.98159">
        <ele>286.13</ele>
        <time>2018-10-14T15:12:27Z</time>
      </trkpt>
      <trkpt lat="49.61927" lon="4.98167">
        <ele>289.49</ele>
        <time>2018-10-14T15:12:44Z</time>
      </trkpt>
      <trkpt lat="49.61935" lon="4.98172">
        <ele>291.42</ele>
        <time>2018-10-14T15:12:54Z</time>
      </trkpt>
      <trkpt lat="49.61952" lon="4.98175">
        <ele>290.94</ele>
        <time>2018-10-14T15:13:09Z</time>
      </trkpt>
      <trkpt lat="49.61971" lon="4.98178">
        <ele>289.49</ele>
        <time>2018-10-14T15:13:25Z</time>
      </trkpt>
      <trkpt lat="49.61988" lon="4.98185">
        <ele>288.05</ele>
        <time>2018-10-14T15:13:42Z</time>
      </trkpt>
      <trkpt lat="49.62005" lon="4.98192">
        <ele>285.65</ele>
        <time>2018-10-14T15:13:58Z</time>
      </trkpt>
      <trkpt lat="49.62023" lon="4.98201">
        <ele>280.36</ele>
        <time>2018-10-14T15:14:16Z</time>
      </trkpt>
      <trkpt lat="49.62046" lon="4.98215">
        <ele>278.44</ele>
        <time>2018-10-14T15:14:35Z</time>
      </trkpt>
      <trkpt lat="49.62065" lon="4.98225">
        <ele>275.07</ele>
        <time>2018-10-14T15:14:54Z</time>
      </trkpt>
      <trkpt lat="49.6208" lon="4.98232">
        <ele>273.15</ele>
        <time>2018-10-14T15:15:09Z</time>
      </trkpt>
      <trkpt lat="49.62094" lon="4.9824">
        <ele>270.75</ele>
        <time>2018-10-14T15:15:25Z</time>
      </trkpt>
      <trkpt lat="49.62108" lon="4.98254">
        <ele>269.79</ele>
        <time>2018-10-14T15:15:40Z</time>
      </trkpt>
      <trkpt lat="49.62122" lon="4.98267">
        <ele>270.27</ele>
        <time>2018-10-14T15:15:56Z</time>
      </trkpt>
      <trkpt lat="49.62137" lon="4.98277">
        <ele>269.31</ele>
        <time>2018-10-14T15:16:12Z</time>
      </trkpt>
      <trkpt lat="49.6214" lon="4.98279">
        <ele>269.31</ele>
        <time>2018-10-14T15:16:15Z</time>
      </trkpt>
      <trkpt lat="49.62155" lon="4.98284">
        <ele>269.31</ele>
        <time>2018-10-14T15:16:30Z</time>
      </trkpt>
      <trkpt lat="49.62172" lon="4.9829">
        <ele>269.79</ele>
        <time>2018-10-14T15:16:47Z</time>
      </trkpt>
      <trkpt lat="49.62186" lon="4.98295">
        <ele>270.75</ele>
        <time>2018-10-14T15:17:03Z</time>
      </trkpt>
      <trkpt lat="49.622" lon="4.98301">
        <ele>272.67</ele>
        <time>2018-10-14T15:17:19Z</time>
      </trkpt>
      <trkpt lat="49.62215" lon="4.98309">
        <ele>275.56</ele>
        <time>2018-10-14T15:17:36Z</time>
      </trkpt>
      <trkpt lat="49.62227" lon="4.98316">
        <ele>276.04</ele>
        <time>2018-10-14T15:17:50Z</time>
      </trkpt>
      <trkpt lat="49.62245" lon="4.98325">
        <ele>271.71</ele>
        <time>2018-10-14T15:18:05Z</time>
      </trkpt>
      <trkpt lat="49.62257" lon="4.98335">
        <ele>268.35</ele>
        <time>2018-10-14T15:18:17Z</time>
      </trkpt>
      <trkpt lat="49.62269" lon="4.98356">
        <ele>266.9</ele>
        <time>2018-10-14T15:18:33Z</time>
      </trkpt>
      <trkpt lat="49.62283" lon="4.98375">
        <ele>266.42</ele>
        <time>2018-10-14T15:18:50Z</time>
      </trkpt>
      <trkpt lat="49.62286" lon="4.98378">
        <ele>265.94</ele>
        <time>2018-10-14T15:18:53Z</time>
      </trkpt>
      <trkpt lat="49.62289" lon="4.98384">
        <ele>265.46</ele>
        <time>2018-10-14T15:18:58Z</time>
      </trkpt>
      <trkpt lat="49.62301" lon="4.98406">
        <ele>266.42</ele>
        <time>2018-10-14T15:19:14Z</time>
      </trkpt>
      <trkpt lat="49.62313" lon="4.98422">
        <ele>263.54</ele>
        <time>2018-10-14T15:19:30Z</time>
      </trkpt>
      <trkpt lat="49.62326" lon="4.98437">
        <ele>261.62</ele>
        <time>2018-10-14T15:19:46Z</time>
      </trkpt>
      <trkpt lat="49.62328" lon="4.98439">
        <ele>261.14</ele>
        <time>2018-10-14T15:19:49Z</time>
      </trkpt>
      <trkpt lat="49.62346" lon="4.98455">
        <ele>260.65</ele>
        <time>2018-10-14T15:20:09Z</time>
      </trkpt>
      <trkpt lat="49.62349" lon="4.98457">
        <ele>261.14</ele>
        <time>2018-10-14T15:20:12Z</time>
      </trkpt>
      <trkpt lat="49.62367" lon="4.98466">
        <ele>259.69</ele>
        <time>2018-10-14T15:20:30Z</time>
      </trkpt>
      <trkpt lat="49.62383" lon="4.98472">
        <ele>259.69</ele>
        <time>2018-10-14T15:20:47Z</time>
      </trkpt>
      <trkpt lat="49.62388" lon="4.98474">
        <ele>259.69</ele>
        <time>2018-10-14T15:20:53Z</time>
      </trkpt>
      <trkpt lat="49.62402" lon="4.98484">
        <ele>258.73</ele>
        <time>2018-10-14T15:21:09Z</time>
      </trkpt>
      <trkpt lat="49.6241" lon="4.98491">
        <ele>258.25</ele>
        <time>2018-10-14T15:21:21Z</time>
      </trkpt>
      <trkpt lat="49.62415" lon="4.98495">
        <ele>258.73</ele>
        <time>2018-10-14T15:21:27Z</time>
      </trkpt>
      <trkpt lat="49.62427" lon="4.98505">
        <ele>257.29</ele>
        <time>2018-10-14T15:21:41Z</time>
      </trkpt>
      <trkpt lat="49.62434" lon="4.98508">
        <ele>256.81</ele>
        <time>2018-10-14T15:21:48Z</time>
      </trkpt>
      <trkpt lat="49.6244" lon="4.98515">
        <ele>256.33</ele>
        <time>2018-10-14T15:21:55Z</time>
      </trkpt>
      <trkpt lat="49.6246" lon="4.98529">
        <ele>257.77</ele>
        <time>2018-10-14T15:22:16Z</time>
      </trkpt>
      <trkpt lat="49.62477" lon="4.98542">
        <ele>257.77</ele>
        <time>2018-10-14T15:22:34Z</time>
      </trkpt>
      <trkpt lat="49.62491" lon="4.98552">
        <ele>257.77</ele>
        <time>2018-10-14T15:22:49Z</time>
      </trkpt>
      <trkpt lat="49.62502" lon="4.98559">
        <ele>256.81</ele>
        <time>2018-10-14T15:23:00Z</time>
      </trkpt>
      <trkpt lat="49.62506" lon="4.98553">
        <ele>256.33</ele>
        <time>2018-10-14T15:23:14Z</time>
      </trkpt>
      <trkpt lat="49.62507" lon="4.98548">
        <ele>255.85</ele>
        <time>2018-10-14T15:23:30Z</time>
      </trkpt>
      <trkpt lat="49.62509" lon="4.98546">
        <ele>255.85</ele>
        <time>2018-10-14T15:23:49Z</time>
      </trkpt>
      <trkpt lat="49.62509" lon="4.98545">
        <ele>256.33</ele>
        <time>2018-10-14T15:24:02Z</time>
      </trkpt>
      <trkpt lat="49.62511" lon="4.98544">
        <ele>255.85</ele>
        <time>2018-10-14T15:24:18Z</time>
      </trkpt>
      <trkpt lat="49.62511" lon="4.98543">
        <ele>255.85</ele>
        <time>2018-10-14T15:24:34Z</time>
      </trkpt>
      <trkpt lat="49.62511" lon="4.98543">
        <ele>256.33</ele>
        <time>2018-10-14T15:24:48Z</time>
      </trkpt>
      <trkpt lat="49.62508" lon="4.98542">
        <ele>256.81</ele>
        <time>2018-10-14T15:25:07Z</time>
      </trkpt>
      <trkpt lat="49.62508" lon="4.98545">
        <ele>256.81</ele>
        <time>2018-10-14T15:25:22Z</time>
      </trkpt>
      <trkpt lat="49.62509" lon="4.98546">
        <ele>256.81</ele>
        <time>2018-10-14T15:25:42Z</time>
      </trkpt>
      <trkpt lat="49.62509" lon="4.98546">
        <ele>256.33</ele>
        <time>2018-10-14T15:26:01Z</time>
      </trkpt>
      <trkpt lat="49.62509" lon="4.98546">
        <ele>256.33</ele>
        <time>2018-10-14T15:26:24Z</time>
      </trkpt>
      <trkpt lat="49.62509" lon="4.98546">
        <ele>256.33</ele>
        <time>2018-10-14T15:26:48Z</time>
      </trkpt>
      <trkpt lat="49.62509" lon="4.98546">
        <ele>256.33</ele>
        <time>2018-10-14T15:27:18Z</time>
      </trkpt>
      <trkpt lat="49.62509" lon="4.98546">
        <ele>255.85</ele>
        <time>2018-10-14T15:27:40Z</time>
      </trkpt>
      <trkpt lat="49.6251" lon="4.98545">
        <ele>255.85</ele>
        <time>2018-10-14T15:28:01Z</time>
      </trkpt>
      <trkpt lat="49.6251" lon="4.98544">
        <ele>255.85</ele>
        <time>2018-10-14T15:28:22Z</time>
      </trkpt>
      <trkpt lat="49.62511" lon="4.98546">
        <ele>255.85</ele>
        <time>2018-10-14T15:28:41Z</time>
      </trkpt>
      <trkpt lat="49.62511" lon="4.98546">
        <ele>255.37</ele>
        <time>2018-10-14T15:29:04Z</time>
      </trkpt>
      <trkpt lat="49.62512" lon="4.98547">
        <ele>255.85</ele>
        <time>2018-10-14T15:29:27Z</time>
      </trkpt>
      <trkpt lat="49.62512" lon="4.98548">
        <ele>255.85</ele>
        <time>2018-10-14T15:29:50Z</time>
      </trkpt>
      <trkpt lat="49.62512" lon="4.98548">
        <ele>255.37</ele>
        <time>2018-10-14T15:30:13Z</time>
      </trkpt>
      <trkpt lat="49.62512" lon="4.98547">
        <ele>255.37</ele>
        <time>2018-10-14T15:30:30Z</time>
      </trkpt>
      <trkpt lat="49.62512" lon="4.98546">
        <ele>255.37</ele>
        <time>2018-10-14T15:30:44Z</time>
      </trkpt>
      <trkpt lat="49.62511" lon="4.98555">
        <ele>255.37</ele>
        <time>2018-10-14T15:30:57Z</time>
      </trkpt>
      <trkpt lat="49.62517" lon="4.98564">
        <ele>254.89</ele>
        <time>2018-10-14T15:31:08Z</time>
      </trkpt>
      <trkpt lat="49.62536" lon="4.98563">
        <ele>254.89</ele>
        <time>2018-10-14T15:31:29Z</time>
      </trkpt>
      <trkpt lat="49.62548" lon="4.98562">
        <ele>253.93</ele>
        <time>2018-10-14T15:31:46Z</time>
      </trkpt>
      <trkpt lat="49.62547" lon="4.98562">
        <ele>255.37</ele>
        <time>2018-10-14T15:32:05Z</time>
      </trkpt>
      <trkpt lat="49.62546" lon="4.98562">
        <ele>256.33</ele>
        <time>2018-10-14T15:32:24Z</time>
      </trkpt>
      <trkpt lat="49.62547" lon="4.98563">
        <ele>256.81</ele>
        <time>2018-10-14T15:32:38Z</time>
      </trkpt>
      <trkpt lat="49.62546" lon="4.98563">
        <ele>258.25</ele>
        <time>2018-10-14T15:32:59Z</time>
      </trkpt>
      <trkpt lat="49.62546" lon="4.98563">
        <ele>258.25</ele>
        <time>2018-10-14T15:33:12Z</time>
      </trkpt>
      <trkpt lat="49.62546" lon="4.98562">
        <ele>258.25</ele>
        <time>2018-10-14T15:33:31Z</time>
      </trkpt>
      <trkpt lat="49.62546" lon="4.98563">
        <ele>258.25</ele>
        <time>2018-10-14T15:33:53Z</time>
      </trkpt>
      <trkpt lat="49.62546" lon="4.98563">
        <ele>258.73</ele>
        <time>2018-10-14T15:34:12Z</time>
      </trkpt>
      <trkpt lat="49.62551" lon="4.98574">
        <ele>257.77</ele>
        <time>2018-10-14T15:34:28Z</time>
      </trkpt>
      <trkpt lat="49.62553" lon="4.98582">
        <ele>258.25</ele>
        <time>2018-10-14T15:34:34Z</time>
      </trkpt>
      <trkpt lat="49.62564" lon="4.9858">
        <ele>259.21</ele>
        <time>2018-10-14T15:34:48Z</time>
      </trkpt>
      <trkpt lat="49.62573" lon="4.98573">
        <ele>258.73</ele>
        <time>2018-10-14T15:34:58Z</time>
      </trkpt>
      <trkpt lat="49.62587" lon="4.9856">
        <ele>257.29</ele>
        <time>2018-10-14T15:35:14Z</time>
      </trkpt>
      <trkpt lat="49.626" lon="4.98551">
        <ele>255.85</ele>
        <time>2018-10-14T15:35:28Z</time>
      </trkpt>
      <trkpt lat="49.62603" lon="4.98548">
        <ele>254.89</ele>
        <time>2018-10-14T15:35:32Z</time>
      </trkpt>
      <trkpt lat="49.62611" lon="4.9854">
        <ele>253.93</ele>
        <time>2018-10-14T15:35:42Z</time>
      </trkpt>
      <trkpt lat="49.62624" lon="4.9853">
        <ele>252.96</ele>
        <time>2018-10-14T15:35:58Z</time>
      </trkpt>
      <trkpt lat="49.62636" lon="4.9852">
        <ele>252.96</ele>
        <time>2018-10-14T15:36:12Z</time>
      </trkpt>
      <trkpt lat="49.62646" lon="4.9851">
        <ele>252.96</ele>
        <time>2018-10-14T15:36:22Z</time>
      </trkpt>
      <trkpt lat="49.6266" lon="4.98499">
        <ele>252.48</ele>
        <time>2018-10-14T15:36:37Z</time>
      </trkpt>
      <trkpt lat="49.62666" lon="4.98493">
        <ele>252</ele>
        <time>2018-10-14T15:36:45Z</time>
      </trkpt>
      <trkpt lat="49.62683" lon="4.98484">
        <ele>252</ele>
        <time>2018-10-14T15:37:02Z</time>
      </trkpt>
      <trkpt lat="49.62685" lon="4.98483">
        <ele>252.48</ele>
        <time>2018-10-14T15:37:04Z</time>
      </trkpt>
      <trkpt lat="49.627" lon="4.98469">
        <ele>253.93</ele>
        <time>2018-10-14T15:37:20Z</time>
      </trkpt>
      <trkpt lat="49.62715" lon="4.98455">
        <ele>252.48</ele>
        <time>2018-10-14T15:37:38Z</time>
      </trkpt>
      <trkpt lat="49.62728" lon="4.98444">
        <ele>250.08</ele>
        <time>2018-10-14T15:37:52Z</time>
      </trkpt>
      <trkpt lat="49.62741" lon="4.98432">
        <ele>249.12</ele>
        <time>2018-10-14T15:38:08Z</time>
      </trkpt>
      <trkpt lat="49.62754" lon="4.98422">
        <ele>248.16</ele>
        <time>2018-10-14T15:38:24Z</time>
      </trkpt>
      <trkpt lat="49.62766" lon="4.98413">
        <ele>246.23</ele>
        <time>2018-10-14T15:38:38Z</time>
      </trkpt>
      <trkpt lat="49.62779" lon="4.98403">
        <ele>244.79</ele>
        <time>2018-10-14T15:38:54Z</time>
      </trkpt>
      <trkpt lat="49.62789" lon="4.98393">
        <ele>243.83</ele>
        <time>2018-10-14T15:39:07Z</time>
      </trkpt>
      <trkpt lat="49.62803" lon="4.98384">
        <ele>240.95</ele>
        <time>2018-10-14T15:39:22Z</time>
      </trkpt>
      <trkpt lat="49.62816" lon="4.98373">
        <ele>238.54</ele>
        <time>2018-10-14T15:39:39Z</time>
      </trkpt>
      <trkpt lat="49.6283" lon="4.98364">
        <ele>236.14</ele>
        <time>2018-10-14T15:39:55Z</time>
      </trkpt>
      <trkpt lat="49.62837" lon="4.98359">
        <ele>234.7</ele>
        <time>2018-10-14T15:40:07Z</time>
      </trkpt>
      <trkpt lat="49.62845" lon="4.98357">
        <ele>233.26</ele>
        <time>2018-10-14T15:40:21Z</time>
      </trkpt>
      <trkpt lat="49.62854" lon="4.98355">
        <ele>232.3</ele>
        <time>2018-10-14T15:40:30Z</time>
      </trkpt>
      <trkpt lat="49.62867" lon="4.9835">
        <ele>230.37</ele>
        <time>2018-10-14T15:40:46Z</time>
      </trkpt>
      <trkpt lat="49.62882" lon="4.98344">
        <ele>230.85</ele>
        <time>2018-10-14T15:41:00Z</time>
      </trkpt>
      <trkpt lat="49.62898" lon="4.98339">
        <ele>230.85</ele>
        <time>2018-10-14T15:41:16Z</time>
      </trkpt>
      <trkpt lat="49.62905" lon="4.98337">
        <ele>229.89</ele>
        <time>2018-10-14T15:41:24Z</time>
      </trkpt>
      <trkpt lat="49.62918" lon="4.98332">
        <ele>227.97</ele>
        <time>2018-10-14T15:41:39Z</time>
      </trkpt>
      <trkpt lat="49.62933" lon="4.98327">
        <ele>225.57</ele>
        <time>2018-10-14T15:41:54Z</time>
      </trkpt>
      <trkpt lat="49.62936" lon="4.98327">
        <ele>225.57</ele>
        <time>2018-10-14T15:41:57Z</time>
      </trkpt>
      <trkpt lat="49.62947" lon="4.98327">
        <ele>225.09</ele>
        <time>2018-10-14T15:42:08Z</time>
      </trkpt>
      <trkpt lat="49.62964" lon="4.9833">
        <ele>224.12</ele>
        <time>2018-10-14T15:42:24Z</time>
      </trkpt>
      <trkpt lat="49.62979" lon="4.9833">
        <ele>222.68</ele>
        <time>2018-10-14T15:42:41Z</time>
      </trkpt>
      <trkpt lat="49.62989" lon="4.98329">
        <ele>221.24</ele>
        <time>2018-10-14T15:42:51Z</time>
      </trkpt>
      <trkpt lat="49.63001" lon="4.98331">
        <ele>220.28</ele>
        <time>2018-10-14T15:43:04Z</time>
      </trkpt>
      <trkpt lat="49.6301" lon="4.98332">
        <ele>219.32</ele>
        <time>2018-10-14T15:43:16Z</time>
      </trkpt>
      <trkpt lat="49.63022" lon="4.98334">
        <ele>217.4</ele>
        <time>2018-10-14T15:43:30Z</time>
      </trkpt>
      <trkpt lat="49.63031" lon="4.98336">
        <ele>215.95</ele>
        <time>2018-10-14T15:43:45Z</time>
      </trkpt>
      <trkpt lat="49.63036" lon="4.98337">
        <ele>215.95</ele>
        <time>2018-10-14T15:43:50Z</time>
      </trkpt>
      <trkpt lat="49.63054" lon="4.98339">
        <ele>216.43</ele>
        <time>2018-10-14T15:44:04Z</time>
      </trkpt>
      <trkpt lat="49.6307" lon="4.98342">
        <ele>214.03</ele>
        <time>2018-10-14T15:44:19Z</time>
      </trkpt>
      <trkpt lat="49.63086" lon="4.98344">
        <ele>216.91</ele>
        <time>2018-10-14T15:44:34Z</time>
      </trkpt>
      <trkpt lat="49.631" lon="4.98346">
        <ele>225.57</ele>
        <time>2018-10-14T15:44:52Z</time>
      </trkpt>
      <trkpt lat="49.63113" lon="4.98345">
        <ele>225.57</ele>
        <time>2018-10-14T15:45:03Z</time>
      </trkpt>
      <trkpt lat="49.6312" lon="4.98345">
        <ele>226.05</ele>
        <time>2018-10-14T15:45:09Z</time>
      </trkpt>
      <trkpt lat="49.63131" lon="4.98343">
        <ele>223.64</ele>
        <time>2018-10-14T15:45:18Z</time>
      </trkpt>
      <trkpt lat="49.63146" lon="4.98343">
        <ele>222.2</ele>
        <time>2018-10-14T15:45:33Z</time>
      </trkpt>
      <trkpt lat="49.63163" lon="4.98344">
        <ele>222.68</ele>
        <time>2018-10-14T15:45:48Z</time>
      </trkpt>
      <trkpt lat="49.63183" lon="4.98347">
        <ele>218.36</ele>
        <time>2018-10-14T15:46:06Z</time>
      </trkpt>
      <trkpt lat="49.63196" lon="4.98346">
        <ele>216.91</ele>
        <time>2018-10-14T15:46:20Z</time>
      </trkpt>
      <trkpt lat="49.63213" lon="4.98348">
        <ele>217.4</ele>
        <time>2018-10-14T15:46:35Z</time>
      </trkpt>
      <trkpt lat="49.63228" lon="4.9835">
        <ele>216.91</ele>
        <time>2018-10-14T15:46:49Z</time>
      </trkpt>
      <trkpt lat="49.63238" lon="4.98353">
        <ele>216.91</ele>
        <time>2018-10-14T15:46:58Z</time>
      </trkpt>
      <trkpt lat="49.63254" lon="4.98352">
        <ele>213.55</ele>
        <time>2018-10-14T15:47:13Z</time>
      </trkpt>
      <trkpt lat="49.63269" lon="4.98355">
        <ele>210.67</ele>
        <time>2018-10-14T15:47:29Z</time>
      </trkpt>
      <trkpt lat="49.63282" lon="4.98356">
        <ele>209.22</ele>
        <time>2018-10-14T15:47:44Z</time>
      </trkpt>
      <trkpt lat="49.63297" lon="4.98359">
        <ele>208.26</ele>
        <time>2018-10-14T15:47:59Z</time>
      </trkpt>
      <trkpt lat="49.63307" lon="4.9836">
        <ele>207.3</ele>
        <time>2018-10-14T15:48:12Z</time>
      </trkpt>
      <trkpt lat="49.63319" lon="4.98362">
        <ele>205.38</ele>
        <time>2018-10-14T15:48:27Z</time>
      </trkpt>
      <trkpt lat="49.63335" lon="4.98361">
        <ele>202.98</ele>
        <time>2018-10-14T15:48:44Z</time>
      </trkpt>
      <trkpt lat="49.63349" lon="4.98356">
        <ele>202.98</ele>
        <time>2018-10-14T15:48:58Z</time>
      </trkpt>
      <trkpt lat="49.63358" lon="4.98347">
        <ele>202.98</ele>
        <time>2018-10-14T15:49:11Z</time>
      </trkpt>
      <trkpt lat="49.63362" lon="4.98345">
        <ele>203.46</ele>
        <time>2018-10-14T15:49:15Z</time>
      </trkpt>
      <trkpt lat="49.63378" lon="4.98335">
        <ele>202.98</ele>
        <time>2018-10-14T15:49:31Z</time>
      </trkpt>
      <trkpt lat="49.63391" lon="4.98325">
        <ele>201.05</ele>
        <time>2018-10-14T15:49:47Z</time>
      </trkpt>
      <trkpt lat="49.63404" lon="4.98312">
        <ele>200.57</ele>
        <time>2018-10-14T15:50:02Z</time>
      </trkpt>
      <trkpt lat="49.63416" lon="4.98296">
        <ele>198.17</ele>
        <time>2018-10-14T15:50:20Z</time>
      </trkpt>
      <trkpt lat="49.63426" lon="4.98282">
        <ele>196.73</ele>
        <time>2018-10-14T15:50:35Z</time>
      </trkpt>
      <trkpt lat="49.63437" lon="4.98266">
        <ele>194.8</ele>
        <time>2018-10-14T15:50:52Z</time>
      </trkpt>
      <trkpt lat="49.63448" lon="4.98251">
        <ele>190.96</ele>
        <time>2018-10-14T15:51:09Z</time>
      </trkpt>
      <trkpt lat="49.63452" lon="4.98237">
        <ele>190.48</ele>
        <time>2018-10-14T15:51:23Z</time>
      </trkpt>
      <trkpt lat="49.63462" lon="4.98227">
        <ele>189.04</ele>
        <time>2018-10-14T15:51:35Z</time>
      </trkpt>
      <trkpt lat="49.63466" lon="4.98209">
        <ele>187.59</ele>
        <time>2018-10-14T15:51:48Z</time>
      </trkpt>
      <trkpt lat="49.63472" lon="4.98193">
        <ele>184.23</ele>
        <time>2018-10-14T15:52:03Z</time>
      </trkpt>
      <trkpt lat="49.63477" lon="4.98171">
        <ele>181.35</ele>
        <time>2018-10-14T15:52:20Z</time>
      </trkpt>
      <trkpt lat="49.63485" lon="4.98153">
        <ele>180.38</ele>
        <time>2018-10-14T15:52:35Z</time>
      </trkpt>
      <trkpt lat="49.63492" lon="4.98139">
        <ele>181.35</ele>
        <time>2018-10-14T15:52:46Z</time>
      </trkpt>
      <trkpt lat="49.63492" lon="4.98134">
        <ele>180.87</ele>
        <time>2018-10-14T15:52:50Z</time>
      </trkpt>
      <trkpt lat="49.63492" lon="4.98131">
        <ele>181.35</ele>
        <time>2018-10-14T15:52:52Z</time>
      </trkpt>
      <trkpt lat="49.63491" lon="4.98127">
        <ele>181.35</ele>
        <time>2018-10-14T15:52:58Z</time>
      </trkpt>
      <trkpt lat="49.63482" lon="4.98111">
        <ele>179.42</ele>
        <time>2018-10-14T15:53:08Z</time>
      </trkpt>
      <trkpt lat="49.63479" lon="4.98103">
        <ele>177.02</ele>
        <time>2018-10-14T15:53:19Z</time>
      </trkpt>
      <trkpt lat="49.63473" lon="4.98095">
        <ele>177.02</ele>
        <time>2018-10-14T15:53:24Z</time>
      </trkpt>
      <trkpt lat="49.63467" lon="4.98086">
        <ele>176.54</ele>
        <time>2018-10-14T15:53:36Z</time>
      </trkpt>
      <trkpt lat="49.63466" lon="4.98085">
        <ele>176.54</ele>
        <time>2018-10-14T15:53:39Z</time>
      </trkpt>
      <trkpt lat="49.63462" lon="4.9808">
        <ele>176.54</ele>
        <time>2018-10-14T15:53:43Z</time>
      </trkpt>
    </trkseg>
  </trk>
</gpx>